<?xml version="1.0" encoding="UTF-8" standalone="no" ?>
<gpx xmlns="http://www.topografix.com/GPX/1/1" xmlns:xsi="http://www.w3.org/2001/XMLSchema-instance" xsi:schemaLocation="http://www.topografix.com/GPX/1/1 http://www.topografix.com/GPX/1/1/gpx.xsd" version="1.1" creator="VisuGPX - https://www.visugpx.com">
  <metadata>
    <name>Coste Belle - Girolet (Dévoluy)</name>
    <desc><![CDATA[Au départ de [b]La Fare en Champsaur[/b].
Grand Parking à côté du cimetière de [b]Notre Dame de Bois Vert[/b].
A la première intersection, suivre plein Sud la Direction du [b]Pas Neuf[/b]. Le sentier est superbe, dans la forêt d'abord puis sous les falaises jusqu'à la vire protégée par des barrières métalliques.
On alterne ensuite entre marnes, prairies et forêt.
Vers 1780, prendre plein Ouest la [b]Piste des Moutons[/b] indiquée sur le fond de carte "OpenStreet". La montée est très soutenue jalonnée de cairns jusqu'au sommet de [b]Coste Folle 2044m[/b].
Pour le plaisir faire l'A/R jusqu’à[b]Coste Belle 2002m[/b] (mal placée sur ma carte IGN).
poursuivre la crête jusqu'au [b]Girolet 2079m[/b].
on peut également faire l'A/R au [b]Sommet du Chamois 2064m[/b].
Du [b]Girolet[/b], descendre la crête et retrouver le sentier qui passe devant la [b]Cabane du Moutet[/b] puis franchit le [b]Rocher du Midi[/b] par une sente aérienne bien marquée.
D'autres photos ici: [url]https://photos.app.goo.gl/eth1V8p7GBborEgz9[/url]
Cr de Greg là: [url]https://www.altituderando.com/rando20721[/url]
Autres sorties dans le massif: [url]https://www.visugpx.com/membres/87/devoluy/[/url]

]]></desc>
  </metadata>
  <wpt lat="44.66192" lon="6.04459">
    <ele>1765.08</ele>
    <name><![CDATA[0000314]]></name>
    <type><![CDATA[Jalon]]></type>
  </wpt>
  <wpt lat="44.66074" lon="6.03734">
    <ele>2017.66</ele>
    <name><![CDATA[0000315]]></name>
    <type><![CDATA[Jalon]]></type>
  </wpt>
  <wpt lat="44.65311" lon="6.0407">
    <ele>1971.62</ele>
    <name><![CDATA[0000316]]></name>
    <type><![CDATA[Jalon]]></type>
  </wpt>
  <wpt lat="44.65127" lon="6.04436">
    <ele>1970.23</ele>
    <name><![CDATA[0000317]]></name>
    <type><![CDATA[Jalon]]></type>
  </wpt>
  <wpt lat="44.65124" lon="6.04446">
    <ele>1970.45</ele>
    <name><![CDATA[0000318]]></name>
    <type><![CDATA[Jalon]]></type>
  </wpt>
  <wpt lat="44.66337" lon="6.03349">
    <ele>2046.48</ele>
    <name><![CDATA[0000319]]></name>
    <type><![CDATA[Jalon]]></type>
  </wpt>
  <wpt lat="44.66753" lon="6.03983">
    <ele>1773.43</ele>
    <name><![CDATA[0000320]]></name>
    <type><![CDATA[Jalon]]></type>
  </wpt>
  <trk>
    <name><![CDATA[2022-10-19 costebelle]]></name>
    <desc><![CDATA[<p>Type: Indéfini<br/>Heure de départ: 08:50 19 oct. 2022<br/>Heure d'arrivée: 15:49 19 oct. 2022<br/>Distance: 15 km (06:59)<br/>Temps déplacement: 05:03<br/>Vitesse moyenne: 2,14 km/h<br/>Vitesse moyenne mouv.: 2,96 km/h<br/>Vitesse Max.: 6,72 km/h<br/>Altitude minimale: 1198 m<br/>Altitude maximale: 2050 m<br/>Vitesse de montée: 462,8 m/h<br/>Vitesse de descente: 563,6 m/h<br/>Gain d'altitude: 1270 m<br/>Perte d'altitude: 1255 m<br/>Temps de montée: 02:44<br/>Temps de descente: 02:13<br/></p><hr align="center" width="480" style="height: 2px; width: 517px"/>]]></desc>
    <trkseg>
      <trkpt lat="44.66696" lon="6.05568">
        <ele>1196.24</ele>
        <time>2022-10-19T06:50:00.999Z</time>
      </trkpt>
      <trkpt lat="44.66698" lon="6.05542">
        <ele>1198.8</ele>
        <time>2022-10-19T06:50:23.236Z</time>
      </trkpt>
      <trkpt lat="44.6669" lon="6.05519">
        <ele>1201.49</ele>
        <time>2022-10-19T06:50:43.134Z</time>
      </trkpt>
      <trkpt lat="44.66688" lon="6.05494">
        <ele>1205.11</ele>
        <time>2022-10-19T06:51:04.465Z</time>
      </trkpt>
      <trkpt lat="44.66686" lon="6.05467">
        <ele>1207.37</ele>
        <time>2022-10-19T06:51:32.447Z</time>
      </trkpt>
      <trkpt lat="44.66677" lon="6.05445">
        <ele>1212.53</ele>
        <time>2022-10-19T06:52:11.974Z</time>
      </trkpt>
      <trkpt lat="44.6666" lon="6.05454">
        <ele>1212.67</ele>
        <time>2022-10-19T06:53:03.012Z</time>
      </trkpt>
      <trkpt lat="44.66642" lon="6.05455">
        <ele>1214.4</ele>
        <time>2022-10-19T06:53:13.999Z</time>
      </trkpt>
      <trkpt lat="44.66623" lon="6.05456">
        <ele>1216.21</ele>
        <time>2022-10-19T06:53:27.607Z</time>
      </trkpt>
      <trkpt lat="44.66606" lon="6.05461">
        <ele>1219.71</ele>
        <time>2022-10-19T06:53:44.445Z</time>
      </trkpt>
      <trkpt lat="44.66587" lon="6.05468">
        <ele>1222.55</ele>
        <time>2022-10-19T06:54:02.329Z</time>
      </trkpt>
      <trkpt lat="44.66569" lon="6.05467">
        <ele>1224.89</ele>
        <time>2022-10-19T06:54:19.076Z</time>
      </trkpt>
      <trkpt lat="44.66554" lon="6.05453">
        <ele>1229.3</ele>
        <time>2022-10-19T06:54:47.999Z</time>
      </trkpt>
      <trkpt lat="44.66553" lon="6.05427">
        <ele>1233.59</ele>
        <time>2022-10-19T06:55:10.571Z</time>
      </trkpt>
      <trkpt lat="44.66563" lon="6.05405">
        <ele>1237.08</ele>
        <time>2022-10-19T06:55:38.366Z</time>
      </trkpt>
      <trkpt lat="44.6658" lon="6.05395">
        <ele>1240.59</ele>
        <time>2022-10-19T06:56:04.396Z</time>
      </trkpt>
      <trkpt lat="44.66584" lon="6.0537">
        <ele>1245.52</ele>
        <time>2022-10-19T06:56:30.999Z</time>
      </trkpt>
      <trkpt lat="44.66585" lon="6.05344">
        <ele>1247.09</ele>
        <time>2022-10-19T06:57:05.329Z</time>
      </trkpt>
      <trkpt lat="44.66588" lon="6.05319">
        <ele>1250.97</ele>
        <time>2022-10-19T06:57:33.465Z</time>
      </trkpt>
      <trkpt lat="44.66572" lon="6.05309">
        <ele>1256.25</ele>
        <time>2022-10-19T06:58:11.999Z</time>
      </trkpt>
      <trkpt lat="44.66553" lon="6.05311">
        <ele>1259.9</ele>
        <time>2022-10-19T06:58:38.999Z</time>
      </trkpt>
      <trkpt lat="44.66534" lon="6.05311">
        <ele>1262.37</ele>
        <time>2022-10-19T06:58:55.375Z</time>
      </trkpt>
      <trkpt lat="44.66516" lon="6.05308">
        <ele>1266.61</ele>
        <time>2022-10-19T06:59:19.451Z</time>
      </trkpt>
      <trkpt lat="44.66498" lon="6.05306">
        <ele>1270.79</ele>
        <time>2022-10-19T07:00:03.000Z</time>
      </trkpt>
      <trkpt lat="44.6648" lon="6.05301">
        <ele>1274.49</ele>
        <time>2022-10-19T07:00:38.000Z</time>
      </trkpt>
      <trkpt lat="44.66464" lon="6.05288">
        <ele>1278.47</ele>
        <time>2022-10-19T07:00:51.554Z</time>
      </trkpt>
      <trkpt lat="44.66446" lon="6.05278">
        <ele>1282.84</ele>
        <time>2022-10-19T07:01:16.461Z</time>
      </trkpt>
      <trkpt lat="44.66431" lon="6.05264">
        <ele>1286.85</ele>
        <time>2022-10-19T07:01:45.249Z</time>
      </trkpt>
      <trkpt lat="44.66414" lon="6.05252">
        <ele>1290.07</ele>
        <time>2022-10-19T07:02:13.396Z</time>
      </trkpt>
      <trkpt lat="44.66402" lon="6.05233">
        <ele>1293.22</ele>
        <time>2022-10-19T07:02:47.895Z</time>
      </trkpt>
      <trkpt lat="44.66388" lon="6.05217">
        <ele>1298.25</ele>
        <time>2022-10-19T07:03:23.372Z</time>
      </trkpt>
      <trkpt lat="44.6637" lon="6.05219">
        <ele>1303.57</ele>
        <time>2022-10-19T07:04:06.611Z</time>
      </trkpt>
      <trkpt lat="44.66352" lon="6.05222">
        <ele>1305.89</ele>
        <time>2022-10-19T07:04:17.455Z</time>
      </trkpt>
      <trkpt lat="44.66333" lon="6.05227">
        <ele>1309.27</ele>
        <time>2022-10-19T07:04:33.468Z</time>
      </trkpt>
      <trkpt lat="44.66315" lon="6.05231">
        <ele>1313.17</ele>
        <time>2022-10-19T07:04:58.355Z</time>
      </trkpt>
      <trkpt lat="44.66297" lon="6.05232">
        <ele>1316.54</ele>
        <time>2022-10-19T07:05:19.953Z</time>
      </trkpt>
      <trkpt lat="44.66279" lon="6.0524">
        <ele>1319.52</ele>
        <time>2022-10-19T07:05:37.534Z</time>
      </trkpt>
      <trkpt lat="44.66261" lon="6.05243">
        <ele>1323.06</ele>
        <time>2022-10-19T07:05:59.000Z</time>
      </trkpt>
      <trkpt lat="44.66243" lon="6.0524">
        <ele>1326.73</ele>
        <time>2022-10-19T07:06:19.571Z</time>
      </trkpt>
      <trkpt lat="44.66225" lon="6.05234">
        <ele>1330.27</ele>
        <time>2022-10-19T07:07:29.998Z</time>
      </trkpt>
      <trkpt lat="44.66207" lon="6.0524">
        <ele>1333.67</ele>
        <time>2022-10-19T07:08:16.312Z</time>
      </trkpt>
      <trkpt lat="44.6619" lon="6.05247">
        <ele>1336.93</ele>
        <time>2022-10-19T07:08:42.487Z</time>
      </trkpt>
      <trkpt lat="44.66172" lon="6.05252">
        <ele>1340.63</ele>
        <time>2022-10-19T07:09:02.830Z</time>
      </trkpt>
      <trkpt lat="44.66154" lon="6.05247">
        <ele>1344.03</ele>
        <time>2022-10-19T07:09:31.315Z</time>
      </trkpt>
      <trkpt lat="44.66138" lon="6.05234">
        <ele>1346.78</ele>
        <time>2022-10-19T07:09:51.273Z</time>
      </trkpt>
      <trkpt lat="44.6612" lon="6.05232">
        <ele>1350.43</ele>
        <time>2022-10-19T07:10:07.530Z</time>
      </trkpt>
      <trkpt lat="44.66102" lon="6.05227">
        <ele>1354.62</ele>
        <time>2022-10-19T07:10:38.000Z</time>
      </trkpt>
      <trkpt lat="44.66085" lon="6.05216">
        <ele>1358.25</ele>
        <time>2022-10-19T07:10:59.628Z</time>
      </trkpt>
      <trkpt lat="44.66067" lon="6.0522">
        <ele>1360.68</ele>
        <time>2022-10-19T07:11:27.000Z</time>
      </trkpt>
      <trkpt lat="44.66049" lon="6.05216">
        <ele>1362.38</ele>
        <time>2022-10-19T07:11:47.000Z</time>
      </trkpt>
      <trkpt lat="44.66031" lon="6.05211">
        <ele>1367.99</ele>
        <time>2022-10-19T07:12:11.459Z</time>
      </trkpt>
      <trkpt lat="44.66014" lon="6.05201">
        <ele>1371.46</ele>
        <time>2022-10-19T07:12:37.000Z</time>
      </trkpt>
      <trkpt lat="44.65998" lon="6.05189">
        <ele>1374.71</ele>
        <time>2022-10-19T07:12:58.451Z</time>
      </trkpt>
      <trkpt lat="44.65982" lon="6.05178">
        <ele>1378.2</ele>
        <time>2022-10-19T07:13:25.268Z</time>
      </trkpt>
      <trkpt lat="44.65964" lon="6.05171">
        <ele>1381.85</ele>
        <time>2022-10-19T07:13:49.614Z</time>
      </trkpt>
      <trkpt lat="44.65948" lon="6.05157">
        <ele>1385.51</ele>
        <time>2022-10-19T07:14:24.554Z</time>
      </trkpt>
      <trkpt lat="44.65934" lon="6.05141">
        <ele>1387.14</ele>
        <time>2022-10-19T07:14:48.175Z</time>
      </trkpt>
      <trkpt lat="44.65917" lon="6.05133">
        <ele>1392.26</ele>
        <time>2022-10-19T07:15:09.072Z</time>
      </trkpt>
      <trkpt lat="44.65901" lon="6.0512">
        <ele>1396.06</ele>
        <time>2022-10-19T07:15:30.000Z</time>
      </trkpt>
      <trkpt lat="44.65884" lon="6.0511">
        <ele>1402.3</ele>
        <time>2022-10-19T07:15:56.590Z</time>
      </trkpt>
      <trkpt lat="44.65867" lon="6.05101">
        <ele>1403.1</ele>
        <time>2022-10-19T07:16:22.375Z</time>
      </trkpt>
      <trkpt lat="44.65849" lon="6.05098">
        <ele>1406.39</ele>
        <time>2022-10-19T07:16:49.251Z</time>
      </trkpt>
      <trkpt lat="44.65864" lon="6.05084">
        <ele>1415.67</ele>
        <time>2022-10-19T07:18:26.999Z</time>
      </trkpt>
      <trkpt lat="44.65881" lon="6.05078">
        <ele>1417.37</ele>
        <time>2022-10-19T07:18:49.108Z</time>
      </trkpt>
      <trkpt lat="44.65899" lon="6.05076">
        <ele>1421.09</ele>
        <time>2022-10-19T07:19:12.999Z</time>
      </trkpt>
      <trkpt lat="44.65917" lon="6.0507">
        <ele>1423.55</ele>
        <time>2022-10-19T07:19:33.999Z</time>
      </trkpt>
      <trkpt lat="44.65901" lon="6.05059">
        <ele>1430.72</ele>
        <time>2022-10-19T07:20:14.460Z</time>
      </trkpt>
      <trkpt lat="44.65883" lon="6.05056">
        <ele>1434.66</ele>
        <time>2022-10-19T07:20:40.909Z</time>
      </trkpt>
      <trkpt lat="44.65865" lon="6.05053">
        <ele>1437.89</ele>
        <time>2022-10-19T07:21:01.912Z</time>
      </trkpt>
      <trkpt lat="44.65852" lon="6.05034">
        <ele>1440.38</ele>
        <time>2022-10-19T07:21:31.039Z</time>
      </trkpt>
      <trkpt lat="44.65841" lon="6.05015">
        <ele>1443.56</ele>
        <time>2022-10-19T07:21:50.175Z</time>
      </trkpt>
      <trkpt lat="44.65834" lon="6.04991">
        <ele>1446.22</ele>
        <time>2022-10-19T07:22:09.999Z</time>
      </trkpt>
      <trkpt lat="44.65819" lon="6.04978">
        <ele>1450.38</ele>
        <time>2022-10-19T07:22:34.999Z</time>
      </trkpt>
      <trkpt lat="44.65815" lon="6.04953">
        <ele>1454.77</ele>
        <time>2022-10-19T07:23:10.999Z</time>
      </trkpt>
      <trkpt lat="44.65808" lon="6.04929">
        <ele>1457.69</ele>
        <time>2022-10-19T07:24:03.999Z</time>
      </trkpt>
      <trkpt lat="44.65821" lon="6.04948">
        <ele>1462.71</ele>
        <time>2022-10-19T07:24:41.999Z</time>
      </trkpt>
      <trkpt lat="44.65832" lon="6.04969">
        <ele>1466.47</ele>
        <time>2022-10-19T07:25:04.292Z</time>
      </trkpt>
      <trkpt lat="44.65849" lon="6.04976">
        <ele>1470.49</ele>
        <time>2022-10-19T07:25:29.457Z</time>
      </trkpt>
      <trkpt lat="44.65865" lon="6.0499">
        <ele>1472.54</ele>
        <time>2022-10-19T07:25:48.049Z</time>
      </trkpt>
      <trkpt lat="44.65882" lon="6.04998">
        <ele>1477.66</ele>
        <time>2022-10-19T07:26:15.475Z</time>
      </trkpt>
      <trkpt lat="44.65882" lon="6.04972">
        <ele>1484.84</ele>
        <time>2022-10-19T07:28:06.872Z</time>
      </trkpt>
      <trkpt lat="44.6587" lon="6.04951">
        <ele>1487.34</ele>
        <time>2022-10-19T07:28:27.999Z</time>
      </trkpt>
      <trkpt lat="44.6586" lon="6.0493">
        <ele>1490.66</ele>
        <time>2022-10-19T07:28:50.117Z</time>
      </trkpt>
      <trkpt lat="44.65848" lon="6.04911">
        <ele>1495.87</ele>
        <time>2022-10-19T07:29:12.355Z</time>
      </trkpt>
      <trkpt lat="44.65835" lon="6.04893">
        <ele>1499.5</ele>
        <time>2022-10-19T07:29:36.912Z</time>
      </trkpt>
      <trkpt lat="44.65824" lon="6.04872">
        <ele>1501.48</ele>
        <time>2022-10-19T07:29:57.999Z</time>
      </trkpt>
      <trkpt lat="44.65809" lon="6.04858">
        <ele>1502.63</ele>
        <time>2022-10-19T07:30:22.252Z</time>
      </trkpt>
      <trkpt lat="44.65794" lon="6.04844">
        <ele>1500.2</ele>
        <time>2022-10-19T07:30:50.070Z</time>
      </trkpt>
      <trkpt lat="44.6578" lon="6.04828">
        <ele>1497.37</ele>
        <time>2022-10-19T07:32:19.999Z</time>
      </trkpt>
      <trkpt lat="44.65789" lon="6.04806">
        <ele>1505.65</ele>
        <time>2022-10-19T07:33:39.890Z</time>
      </trkpt>
      <trkpt lat="44.65792" lon="6.04781">
        <ele>1511.22</ele>
        <time>2022-10-19T07:34:15.999Z</time>
      </trkpt>
      <trkpt lat="44.65793" lon="6.04756">
        <ele>1521.51</ele>
        <time>2022-10-19T07:35:44.169Z</time>
      </trkpt>
      <trkpt lat="44.65796" lon="6.0473">
        <ele>1525.69</ele>
        <time>2022-10-19T07:36:09.211Z</time>
      </trkpt>
      <trkpt lat="44.65794" lon="6.04704">
        <ele>1528.77</ele>
        <time>2022-10-19T07:36:33.000Z</time>
      </trkpt>
      <trkpt lat="44.65798" lon="6.0468">
        <ele>1531.61</ele>
        <time>2022-10-19T07:36:53.555Z</time>
      </trkpt>
      <trkpt lat="44.65808" lon="6.04702">
        <ele>1539.66</ele>
        <time>2022-10-19T07:37:50.311Z</time>
      </trkpt>
      <trkpt lat="44.65812" lon="6.04728">
        <ele>1544</ele>
        <time>2022-10-19T07:38:18.550Z</time>
      </trkpt>
      <trkpt lat="44.65822" lon="6.0475">
        <ele>1548.04</ele>
        <time>2022-10-19T07:40:18.252Z</time>
      </trkpt>
      <trkpt lat="44.65831" lon="6.04772">
        <ele>1553.22</ele>
        <time>2022-10-19T07:40:50.251Z</time>
      </trkpt>
      <trkpt lat="44.65836" lon="6.04796">
        <ele>1557.81</ele>
        <time>2022-10-19T07:41:20.573Z</time>
      </trkpt>
      <trkpt lat="44.65844" lon="6.0482">
        <ele>1562.16</ele>
        <time>2022-10-19T07:41:42.249Z</time>
      </trkpt>
      <trkpt lat="44.65862" lon="6.04819">
        <ele>1569.7</ele>
        <time>2022-10-19T07:42:44.000Z</time>
      </trkpt>
      <trkpt lat="44.65865" lon="6.04793">
        <ele>1573.76</ele>
        <time>2022-10-19T07:43:06.000Z</time>
      </trkpt>
      <trkpt lat="44.65864" lon="6.04767">
        <ele>1577.7</ele>
        <time>2022-10-19T07:43:36.455Z</time>
      </trkpt>
      <trkpt lat="44.65867" lon="6.04742">
        <ele>1582.2</ele>
        <time>2022-10-19T07:44:02.595Z</time>
      </trkpt>
      <trkpt lat="44.6587" lon="6.04717">
        <ele>1585.62</ele>
        <time>2022-10-19T07:44:25.437Z</time>
      </trkpt>
      <trkpt lat="44.65874" lon="6.04692">
        <ele>1589.25</ele>
        <time>2022-10-19T07:44:52.070Z</time>
      </trkpt>
      <trkpt lat="44.6588" lon="6.04668">
        <ele>1594.37</ele>
        <time>2022-10-19T07:45:26.397Z</time>
      </trkpt>
      <trkpt lat="44.65888" lon="6.04644">
        <ele>1599.1</ele>
        <time>2022-10-19T07:46:01.332Z</time>
      </trkpt>
      <trkpt lat="44.65892" lon="6.04619">
        <ele>1603.49</ele>
        <time>2022-10-19T07:46:27.462Z</time>
      </trkpt>
      <trkpt lat="44.65888" lon="6.04594">
        <ele>1608.88</ele>
        <time>2022-10-19T07:47:22.628Z</time>
      </trkpt>
      <trkpt lat="44.65872" lon="6.0458">
        <ele>1612.58</ele>
        <time>2022-10-19T07:47:41.000Z</time>
      </trkpt>
      <trkpt lat="44.65871" lon="6.04555">
        <ele>1617.53</ele>
        <time>2022-10-19T07:48:18.208Z</time>
      </trkpt>
      <trkpt lat="44.6588" lon="6.04533">
        <ele>1620.31</ele>
        <time>2022-10-19T07:48:43.000Z</time>
      </trkpt>
      <trkpt lat="44.65894" lon="6.0455">
        <ele>1634.57</ele>
        <time>2022-10-19T07:50:15.272Z</time>
      </trkpt>
      <trkpt lat="44.65909" lon="6.04564">
        <ele>1638.24</ele>
        <time>2022-10-19T07:50:37.458Z</time>
      </trkpt>
      <trkpt lat="44.65927" lon="6.04567">
        <ele>1641.49</ele>
        <time>2022-10-19T07:50:59.000Z</time>
      </trkpt>
      <trkpt lat="44.65945" lon="6.04564">
        <ele>1644.23</ele>
        <time>2022-10-19T07:51:19.610Z</time>
      </trkpt>
      <trkpt lat="44.65955" lon="6.04586">
        <ele>1645.29</ele>
        <time>2022-10-19T07:51:37.251Z</time>
      </trkpt>
      <trkpt lat="44.65953" lon="6.04612">
        <ele>1648.03</ele>
        <time>2022-10-19T07:51:57.487Z</time>
      </trkpt>
      <trkpt lat="44.65955" lon="6.04638">
        <ele>1650.83</ele>
        <time>2022-10-19T07:52:19.594Z</time>
      </trkpt>
      <trkpt lat="44.65955" lon="6.04664">
        <ele>1652.57</ele>
        <time>2022-10-19T07:52:40.354Z</time>
      </trkpt>
      <trkpt lat="44.65969" lon="6.04647">
        <ele>1655.05</ele>
        <time>2022-10-19T07:53:19.273Z</time>
      </trkpt>
      <trkpt lat="44.65966" lon="6.04621">
        <ele>1657.55</ele>
        <time>2022-10-19T07:53:41.999Z</time>
      </trkpt>
      <trkpt lat="44.65981" lon="6.04637">
        <ele>1664.18</ele>
        <time>2022-10-19T07:54:25.315Z</time>
      </trkpt>
      <trkpt lat="44.65985" lon="6.04611">
        <ele>1671.54</ele>
        <time>2022-10-19T07:55:14.573Z</time>
      </trkpt>
      <trkpt lat="44.66001" lon="6.04625">
        <ele>1679.07</ele>
        <time>2022-10-19T07:56:03.495Z</time>
      </trkpt>
      <trkpt lat="44.66014" lon="6.04642">
        <ele>1682.82</ele>
        <time>2022-10-19T07:56:22.999Z</time>
      </trkpt>
      <trkpt lat="44.66015" lon="6.04668">
        <ele>1686.79</ele>
        <time>2022-10-19T07:56:50.611Z</time>
      </trkpt>
      <trkpt lat="44.66011" lon="6.04693">
        <ele>1690.25</ele>
        <time>2022-10-19T07:57:14.588Z</time>
      </trkpt>
      <trkpt lat="44.6601" lon="6.04719">
        <ele>1694.31</ele>
        <time>2022-10-19T07:57:39.947Z</time>
      </trkpt>
      <trkpt lat="44.66014" lon="6.04744">
        <ele>1697.52</ele>
        <time>2022-10-19T07:58:05.999Z</time>
      </trkpt>
      <trkpt lat="44.66016" lon="6.04769">
        <ele>1703.75</ele>
        <time>2022-10-19T07:58:37.514Z</time>
      </trkpt>
      <trkpt lat="44.66018" lon="6.04795">
        <ele>1707.85</ele>
        <time>2022-10-19T07:59:06.312Z</time>
      </trkpt>
      <trkpt lat="44.66023" lon="6.0482">
        <ele>1711.83</ele>
        <time>2022-10-19T07:59:28.999Z</time>
      </trkpt>
      <trkpt lat="44.66029" lon="6.04796">
        <ele>1716.6</ele>
        <time>2022-10-19T08:00:05.914Z</time>
      </trkpt>
      <trkpt lat="44.66037" lon="6.04773">
        <ele>1719.85</ele>
        <time>2022-10-19T08:00:28.274Z</time>
      </trkpt>
      <trkpt lat="44.66052" lon="6.04757">
        <ele>1723.43</ele>
        <time>2022-10-19T08:00:53.999Z</time>
      </trkpt>
      <trkpt lat="44.66065" lon="6.0474">
        <ele>1726.93</ele>
        <time>2022-10-19T08:01:17.549Z</time>
      </trkpt>
      <trkpt lat="44.66069" lon="6.04766">
        <ele>1731.59</ele>
        <time>2022-10-19T08:01:56.836Z</time>
      </trkpt>
      <trkpt lat="44.66075" lon="6.0479">
        <ele>1738.97</ele>
        <time>2022-10-19T08:02:22.999Z</time>
      </trkpt>
      <trkpt lat="44.66089" lon="6.04805">
        <ele>1744.23</ele>
        <time>2022-10-19T08:02:57.570Z</time>
      </trkpt>
      <trkpt lat="44.66095" lon="6.04782">
        <ele>1745.1</ele>
        <time>2022-10-19T08:03:35.336Z</time>
      </trkpt>
      <trkpt lat="44.66109" lon="6.04764">
        <ele>1748.36</ele>
        <time>2022-10-19T08:03:56.209Z</time>
      </trkpt>
      <trkpt lat="44.66116" lon="6.04741">
        <ele>1750.2</ele>
        <time>2022-10-19T08:04:53.191Z</time>
      </trkpt>
      <trkpt lat="44.66133" lon="6.04729">
        <ele>1752.15</ele>
        <time>2022-10-19T08:05:14.548Z</time>
      </trkpt>
      <trkpt lat="44.66145" lon="6.04711">
        <ele>1754.07</ele>
        <time>2022-10-19T08:05:41.999Z</time>
      </trkpt>
      <trkpt lat="44.66153" lon="6.04688">
        <ele>1754.03</ele>
        <time>2022-10-19T08:05:55.917Z</time>
      </trkpt>
      <trkpt lat="44.66163" lon="6.04665">
        <ele>1755.06</ele>
        <time>2022-10-19T08:06:13.174Z</time>
      </trkpt>
      <trkpt lat="44.66159" lon="6.04639">
        <ele>1759.07</ele>
        <time>2022-10-19T08:06:37.514Z</time>
      </trkpt>
      <trkpt lat="44.66152" lon="6.04615">
        <ele>1759.95</ele>
        <time>2022-10-19T08:06:51.014Z</time>
      </trkpt>
      <trkpt lat="44.66156" lon="6.04589">
        <ele>1762.11</ele>
        <time>2022-10-19T08:07:09.457Z</time>
      </trkpt>
      <trkpt lat="44.66164" lon="6.04566">
        <ele>1763.04</ele>
        <time>2022-10-19T08:07:28.989Z</time>
      </trkpt>
      <trkpt lat="44.66174" lon="6.04543">
        <ele>1763.73</ele>
        <time>2022-10-19T08:07:47.575Z</time>
      </trkpt>
      <trkpt lat="44.66182" lon="6.0452">
        <ele>1763.69</ele>
        <time>2022-10-19T08:08:03.076Z</time>
      </trkpt>
      <trkpt lat="44.66188" lon="6.04496">
        <ele>1764.3</ele>
        <time>2022-10-19T08:08:17.999Z</time>
      </trkpt>
      <trkpt lat="44.6619" lon="6.0447">
        <ele>1763.62</ele>
        <time>2022-10-19T08:08:32.999Z</time>
      </trkpt>
      <trkpt lat="44.66193" lon="6.04445">
        <ele>1766.52</ele>
        <time>2022-10-19T08:09:14.000Z</time>
      </trkpt>
      <trkpt lat="44.66193" lon="6.04419">
        <ele>1765.71</ele>
        <time>2022-10-19T08:09:27.887Z</time>
      </trkpt>
      <trkpt lat="44.66196" lon="6.04394">
        <ele>1764.83</ele>
        <time>2022-10-19T08:09:45.557Z</time>
      </trkpt>
      <trkpt lat="44.662" lon="6.04368">
        <ele>1765.23</ele>
        <time>2022-10-19T08:10:02.236Z</time>
      </trkpt>
      <trkpt lat="44.66204" lon="6.04344">
        <ele>1764.41</ele>
        <time>2022-10-19T08:10:17.334Z</time>
      </trkpt>
      <trkpt lat="44.6621" lon="6.04319">
        <ele>1765.83</ele>
        <time>2022-10-19T08:10:36.133Z</time>
      </trkpt>
      <trkpt lat="44.66193" lon="6.04328">
        <ele>1773.23</ele>
        <time>2022-10-19T08:13:23.476Z</time>
      </trkpt>
      <trkpt lat="44.66175" lon="6.04335">
        <ele>1779.83</ele>
        <time>2022-10-19T08:14:16.586Z</time>
      </trkpt>
      <trkpt lat="44.66158" lon="6.0434">
        <ele>1787.1</ele>
        <time>2022-10-19T08:15:12.196Z</time>
      </trkpt>
      <trkpt lat="44.6614" lon="6.04332">
        <ele>1797.84</ele>
        <time>2022-10-19T08:16:05.289Z</time>
      </trkpt>
      <trkpt lat="44.66126" lon="6.04315">
        <ele>1803.05</ele>
        <time>2022-10-19T08:16:34.459Z</time>
      </trkpt>
      <trkpt lat="44.66117" lon="6.04293">
        <ele>1811.16</ele>
        <time>2022-10-19T08:17:19.337Z</time>
      </trkpt>
      <trkpt lat="44.66129" lon="6.04273">
        <ele>1822.48</ele>
        <time>2022-10-19T08:18:30.569Z</time>
      </trkpt>
      <trkpt lat="44.6613" lon="6.04248">
        <ele>1829.58</ele>
        <time>2022-10-19T08:19:20.394Z</time>
      </trkpt>
      <trkpt lat="44.66131" lon="6.04223">
        <ele>1840.54</ele>
        <time>2022-10-19T08:20:16.000Z</time>
      </trkpt>
      <trkpt lat="44.66137" lon="6.04198">
        <ele>1849.44</ele>
        <time>2022-10-19T08:20:55.000Z</time>
      </trkpt>
      <trkpt lat="44.66136" lon="6.04172">
        <ele>1854.59</ele>
        <time>2022-10-19T08:21:31.571Z</time>
      </trkpt>
      <trkpt lat="44.66138" lon="6.04146">
        <ele>1859.42</ele>
        <time>2022-10-19T08:22:04.397Z</time>
      </trkpt>
      <trkpt lat="44.6614" lon="6.04121">
        <ele>1866.65</ele>
        <time>2022-10-19T08:22:43.335Z</time>
      </trkpt>
      <trkpt lat="44.66141" lon="6.04095">
        <ele>1870.33</ele>
        <time>2022-10-19T08:24:02.000Z</time>
      </trkpt>
      <trkpt lat="44.66156" lon="6.04083">
        <ele>1878.47</ele>
        <time>2022-10-19T08:27:18.999Z</time>
      </trkpt>
      <trkpt lat="44.6616" lon="6.04058">
        <ele>1885.05</ele>
        <time>2022-10-19T08:27:54.607Z</time>
      </trkpt>
      <trkpt lat="44.66159" lon="6.04032">
        <ele>1891.26</ele>
        <time>2022-10-19T08:28:25.319Z</time>
      </trkpt>
      <trkpt lat="44.66158" lon="6.04007">
        <ele>1898.92</ele>
        <time>2022-10-19T08:29:09.552Z</time>
      </trkpt>
      <trkpt lat="44.6615" lon="6.03984">
        <ele>1906.9</ele>
        <time>2022-10-19T08:30:01.526Z</time>
      </trkpt>
      <trkpt lat="44.66144" lon="6.0396">
        <ele>1914.06</ele>
        <time>2022-10-19T08:31:03.872Z</time>
      </trkpt>
      <trkpt lat="44.6614" lon="6.03935">
        <ele>1923.06</ele>
        <time>2022-10-19T08:32:50.999Z</time>
      </trkpt>
      <trkpt lat="44.66136" lon="6.03911">
        <ele>1936.05</ele>
        <time>2022-10-19T08:34:19.250Z</time>
      </trkpt>
      <trkpt lat="44.66126" lon="6.03889">
        <ele>1944.25</ele>
        <time>2022-10-19T08:35:05.999Z</time>
      </trkpt>
      <trkpt lat="44.66116" lon="6.03868">
        <ele>1960.09</ele>
        <time>2022-10-19T08:36:24.461Z</time>
      </trkpt>
      <trkpt lat="44.66105" lon="6.03849">
        <ele>1967.56</ele>
        <time>2022-10-19T08:37:16.047Z</time>
      </trkpt>
      <trkpt lat="44.66102" lon="6.03824">
        <ele>1979.85</ele>
        <time>2022-10-19T08:38:21.509Z</time>
      </trkpt>
      <trkpt lat="44.66097" lon="6.038">
        <ele>1989.07</ele>
        <time>2022-10-19T08:39:13.989Z</time>
      </trkpt>
      <trkpt lat="44.66093" lon="6.03775">
        <ele>2002.92</ele>
        <time>2022-10-19T08:40:21.999Z</time>
      </trkpt>
      <trkpt lat="44.6609" lon="6.03749">
        <ele>2010.07</ele>
        <time>2022-10-19T08:41:10.597Z</time>
      </trkpt>
      <trkpt lat="44.66074" lon="6.03739">
        <ele>2013.31</ele>
        <time>2022-10-19T08:45:19.000Z</time>
      </trkpt>
      <trkpt lat="44.66056" lon="6.03731">
        <ele>2012.08</ele>
        <time>2022-10-19T08:51:59.108Z</time>
      </trkpt>
      <trkpt lat="44.66039" lon="6.03735">
        <ele>2011.23</ele>
        <time>2022-10-19T08:52:12.015Z</time>
      </trkpt>
      <trkpt lat="44.6602" lon="6.03741">
        <ele>2009.68</ele>
        <time>2022-10-19T08:52:25.395Z</time>
      </trkpt>
      <trkpt lat="44.66002" lon="6.03745">
        <ele>2007.28</ele>
        <time>2022-10-19T08:52:40.113Z</time>
      </trkpt>
      <trkpt lat="44.65983" lon="6.0375">
        <ele>2003.33</ele>
        <time>2022-10-19T08:53:09.441Z</time>
      </trkpt>
      <trkpt lat="44.65966" lon="6.03761">
        <ele>1998.58</ele>
        <time>2022-10-19T08:53:25.210Z</time>
      </trkpt>
      <trkpt lat="44.65949" lon="6.03767">
        <ele>1994.57</ele>
        <time>2022-10-19T08:53:43.616Z</time>
      </trkpt>
      <trkpt lat="44.6593" lon="6.03768">
        <ele>1986.87</ele>
        <time>2022-10-19T08:54:04.198Z</time>
      </trkpt>
      <trkpt lat="44.65912" lon="6.03769">
        <ele>1979.66</ele>
        <time>2022-10-19T08:54:26.976Z</time>
      </trkpt>
      <trkpt lat="44.65894" lon="6.03764">
        <ele>1973.11</ele>
        <time>2022-10-19T08:54:44.354Z</time>
      </trkpt>
      <trkpt lat="44.65875" lon="6.03767">
        <ele>1969.56</ele>
        <time>2022-10-19T08:55:03.000Z</time>
      </trkpt>
      <trkpt lat="44.65857" lon="6.03772">
        <ele>1967.24</ele>
        <time>2022-10-19T08:55:20.531Z</time>
      </trkpt>
      <trkpt lat="44.6584" lon="6.03782">
        <ele>1964.24</ele>
        <time>2022-10-19T08:55:43.000Z</time>
      </trkpt>
      <trkpt lat="44.65822" lon="6.03779">
        <ele>1962.71</ele>
        <time>2022-10-19T08:56:02.459Z</time>
      </trkpt>
      <trkpt lat="44.65804" lon="6.03776">
        <ele>1961.9</ele>
        <time>2022-10-19T08:56:15.457Z</time>
      </trkpt>
      <trkpt lat="44.65785" lon="6.03779">
        <ele>1960.93</ele>
        <time>2022-10-19T08:56:32.257Z</time>
      </trkpt>
      <trkpt lat="44.65767" lon="6.03784">
        <ele>1961.59</ele>
        <time>2022-10-19T08:56:47.314Z</time>
      </trkpt>
      <trkpt lat="44.65749" lon="6.03783">
        <ele>1962.98</ele>
        <time>2022-10-19T08:57:08.000Z</time>
      </trkpt>
      <trkpt lat="44.65731" lon="6.03787">
        <ele>1964.2</ele>
        <time>2022-10-19T08:57:26.291Z</time>
      </trkpt>
      <trkpt lat="44.65714" lon="6.03799">
        <ele>1967.16</ele>
        <time>2022-10-19T08:58:03.535Z</time>
      </trkpt>
      <trkpt lat="44.65698" lon="6.03812">
        <ele>1967.94</ele>
        <time>2022-10-19T08:58:19.055Z</time>
      </trkpt>
      <trkpt lat="44.65681" lon="6.03821">
        <ele>1967.3</ele>
        <time>2022-10-19T08:58:50.912Z</time>
      </trkpt>
      <trkpt lat="44.65665" lon="6.03832">
        <ele>1965.93</ele>
        <time>2022-10-19T08:59:07.109Z</time>
      </trkpt>
      <trkpt lat="44.65649" lon="6.03845">
        <ele>1963.48</ele>
        <time>2022-10-19T08:59:25.000Z</time>
      </trkpt>
      <trkpt lat="44.65635" lon="6.03862">
        <ele>1960.91</ele>
        <time>2022-10-19T08:59:49.095Z</time>
      </trkpt>
      <trkpt lat="44.65619" lon="6.03876">
        <ele>1959.65</ele>
        <time>2022-10-19T09:00:05.510Z</time>
      </trkpt>
      <trkpt lat="44.65602" lon="6.03884">
        <ele>1956.42</ele>
        <time>2022-10-19T09:00:24.000Z</time>
      </trkpt>
      <trkpt lat="44.65589" lon="6.03902">
        <ele>1952.89</ele>
        <time>2022-10-19T09:02:39.476Z</time>
      </trkpt>
      <trkpt lat="44.65573" lon="6.03916">
        <ele>1950.79</ele>
        <time>2022-10-19T09:03:15.175Z</time>
      </trkpt>
      <trkpt lat="44.65557" lon="6.03928">
        <ele>1950.56</ele>
        <time>2022-10-19T09:03:35.392Z</time>
      </trkpt>
      <trkpt lat="44.65541" lon="6.0394">
        <ele>1948.91</ele>
        <time>2022-10-19T09:03:55.999Z</time>
      </trkpt>
      <trkpt lat="44.65523" lon="6.03943">
        <ele>1944.75</ele>
        <time>2022-10-19T09:04:25.999Z</time>
      </trkpt>
      <trkpt lat="44.65514" lon="6.03966">
        <ele>1943.74</ele>
        <time>2022-10-19T09:05:03.999Z</time>
      </trkpt>
      <trkpt lat="44.65496" lon="6.03959">
        <ele>1941.86</ele>
        <time>2022-10-19T09:13:37.999Z</time>
      </trkpt>
      <trkpt lat="44.65479" lon="6.03967">
        <ele>1939.19</ele>
        <time>2022-10-19T09:14:02.154Z</time>
      </trkpt>
      <trkpt lat="44.65462" lon="6.03976">
        <ele>1940.56</ele>
        <time>2022-10-19T09:14:20.999Z</time>
      </trkpt>
      <trkpt lat="44.65444" lon="6.03983">
        <ele>1941.9</ele>
        <time>2022-10-19T09:14:37.170Z</time>
      </trkpt>
      <trkpt lat="44.65426" lon="6.03986">
        <ele>1943.81</ele>
        <time>2022-10-19T09:14:57.999Z</time>
      </trkpt>
      <trkpt lat="44.6541" lon="6.03996">
        <ele>1946.92</ele>
        <time>2022-10-19T09:15:16.996Z</time>
      </trkpt>
      <trkpt lat="44.65394" lon="6.04007">
        <ele>1951.41</ele>
        <time>2022-10-19T09:15:52.175Z</time>
      </trkpt>
      <trkpt lat="44.65376" lon="6.04014">
        <ele>1956.05</ele>
        <time>2022-10-19T09:17:15.190Z</time>
      </trkpt>
      <trkpt lat="44.65358" lon="6.04018">
        <ele>1958.92</ele>
        <time>2022-10-19T09:17:56.209Z</time>
      </trkpt>
      <trkpt lat="44.6534" lon="6.04024">
        <ele>1962.23</ele>
        <time>2022-10-19T09:18:33.034Z</time>
      </trkpt>
      <trkpt lat="44.65325" lon="6.0404">
        <ele>1966</ele>
        <time>2022-10-19T09:18:53.534Z</time>
      </trkpt>
      <trkpt lat="44.65314" lon="6.04061">
        <ele>1971.12</ele>
        <time>2022-10-19T09:19:18.090Z</time>
      </trkpt>
      <trkpt lat="44.65308" lon="6.04086">
        <ele>1971.29</ele>
        <time>2022-10-19T09:19:44.907Z</time>
      </trkpt>
      <trkpt lat="44.65295" lon="6.04104">
        <ele>1970.34</ele>
        <time>2022-10-19T09:20:01.470Z</time>
      </trkpt>
      <trkpt lat="44.6528" lon="6.0412">
        <ele>1965.85</ele>
        <time>2022-10-19T09:20:35.000Z</time>
      </trkpt>
      <trkpt lat="44.65266" lon="6.04137">
        <ele>1965.6</ele>
        <time>2022-10-19T09:20:56.091Z</time>
      </trkpt>
      <trkpt lat="44.65252" lon="6.04153">
        <ele>1961.01</ele>
        <time>2022-10-19T09:21:14.868Z</time>
      </trkpt>
      <trkpt lat="44.65242" lon="6.04173">
        <ele>1952.95</ele>
        <time>2022-10-19T09:22:13.310Z</time>
      </trkpt>
      <trkpt lat="44.65234" lon="6.04197">
        <ele>1953.36</ele>
        <time>2022-10-19T09:23:18.452Z</time>
      </trkpt>
      <trkpt lat="44.65225" lon="6.04219">
        <ele>1954.78</ele>
        <time>2022-10-19T09:23:37.493Z</time>
      </trkpt>
      <trkpt lat="44.65213" lon="6.04238">
        <ele>1954.87</ele>
        <time>2022-10-19T09:23:53.227Z</time>
      </trkpt>
      <trkpt lat="44.65203" lon="6.04261">
        <ele>1957.23</ele>
        <time>2022-10-19T09:24:20.438Z</time>
      </trkpt>
      <trkpt lat="44.65193" lon="6.04282">
        <ele>1958.38</ele>
        <time>2022-10-19T09:24:34.138Z</time>
      </trkpt>
      <trkpt lat="44.65183" lon="6.04303">
        <ele>1959.97</ele>
        <time>2022-10-19T09:24:51.614Z</time>
      </trkpt>
      <trkpt lat="44.65172" lon="6.04325">
        <ele>1962.02</ele>
        <time>2022-10-19T09:25:12.000Z</time>
      </trkpt>
      <trkpt lat="44.65163" lon="6.04347">
        <ele>1963.32</ele>
        <time>2022-10-19T09:25:29.908Z</time>
      </trkpt>
      <trkpt lat="44.65157" lon="6.0437">
        <ele>1965.42</ele>
        <time>2022-10-19T09:25:46.000Z</time>
      </trkpt>
      <trkpt lat="44.65148" lon="6.04393">
        <ele>1967.7</ele>
        <time>2022-10-19T09:26:05.000Z</time>
      </trkpt>
      <trkpt lat="44.65134" lon="6.0441">
        <ele>1968.97</ele>
        <time>2022-10-19T09:26:51.000Z</time>
      </trkpt>
      <trkpt lat="44.65127" lon="6.04434">
        <ele>1969.58</ele>
        <time>2022-10-19T09:27:25.076Z</time>
      </trkpt>
      <trkpt lat="44.65143" lon="6.04421">
        <ele>1986.3</ele>
        <time>2022-10-19T09:49:36.455Z</time>
      </trkpt>
      <trkpt lat="44.65154" lon="6.044">
        <ele>1984.43</ele>
        <time>2022-10-19T09:49:53.156Z</time>
      </trkpt>
      <trkpt lat="44.65162" lon="6.04375">
        <ele>1983.11</ele>
        <time>2022-10-19T09:50:20.515Z</time>
      </trkpt>
      <trkpt lat="44.65171" lon="6.04352">
        <ele>1981.36</ele>
        <time>2022-10-19T09:50:37.450Z</time>
      </trkpt>
      <trkpt lat="44.65183" lon="6.04333">
        <ele>1981.08</ele>
        <time>2022-10-19T09:50:54.510Z</time>
      </trkpt>
      <trkpt lat="44.65192" lon="6.0431">
        <ele>1980.04</ele>
        <time>2022-10-19T09:51:12.308Z</time>
      </trkpt>
      <trkpt lat="44.65201" lon="6.04288">
        <ele>1978.75</ele>
        <time>2022-10-19T09:51:30.381Z</time>
      </trkpt>
      <trkpt lat="44.65214" lon="6.04269">
        <ele>1974.1</ele>
        <time>2022-10-19T09:51:47.611Z</time>
      </trkpt>
      <trkpt lat="44.65225" lon="6.04249">
        <ele>1974.38</ele>
        <time>2022-10-19T09:52:04.462Z</time>
      </trkpt>
      <trkpt lat="44.65233" lon="6.04224">
        <ele>1975.27</ele>
        <time>2022-10-19T09:52:21.000Z</time>
      </trkpt>
      <trkpt lat="44.65247" lon="6.04208">
        <ele>1974.69</ele>
        <time>2022-10-19T09:52:38.590Z</time>
      </trkpt>
      <trkpt lat="44.65257" lon="6.04186">
        <ele>1971.95</ele>
        <time>2022-10-19T09:53:13.478Z</time>
      </trkpt>
      <trkpt lat="44.65259" lon="6.04161">
        <ele>1970.05</ele>
        <time>2022-10-19T09:54:13.315Z</time>
      </trkpt>
      <trkpt lat="44.65274" lon="6.04145">
        <ele>1975.79</ele>
        <time>2022-10-19T09:54:35.092Z</time>
      </trkpt>
      <trkpt lat="44.65289" lon="6.0413">
        <ele>1980.27</ele>
        <time>2022-10-19T09:54:54.512Z</time>
      </trkpt>
      <trkpt lat="44.65304" lon="6.04113">
        <ele>1985.83</ele>
        <time>2022-10-19T09:55:20.329Z</time>
      </trkpt>
      <trkpt lat="44.65314" lon="6.04092">
        <ele>1986.6</ele>
        <time>2022-10-19T09:55:39.548Z</time>
      </trkpt>
      <trkpt lat="44.65325" lon="6.0407">
        <ele>1984.71</ele>
        <time>2022-10-19T09:56:06.916Z</time>
      </trkpt>
      <trkpt lat="44.65335" lon="6.04049">
        <ele>1978.76</ele>
        <time>2022-10-19T09:56:59.289Z</time>
      </trkpt>
      <trkpt lat="44.65351" lon="6.04036">
        <ele>1967.53</ele>
        <time>2022-10-19T09:58:38.000Z</time>
      </trkpt>
      <trkpt lat="44.65366" lon="6.04022">
        <ele>1961.69</ele>
        <time>2022-10-19T09:59:22.353Z</time>
      </trkpt>
      <trkpt lat="44.65384" lon="6.04024">
        <ele>1957.8</ele>
        <time>2022-10-19T09:59:48.129Z</time>
      </trkpt>
      <trkpt lat="44.65402" lon="6.04017">
        <ele>1954.55</ele>
        <time>2022-10-19T10:00:07.000Z</time>
      </trkpt>
      <trkpt lat="44.65419" lon="6.04008">
        <ele>1947.5</ele>
        <time>2022-10-19T10:00:27.109Z</time>
      </trkpt>
      <trkpt lat="44.65436" lon="6.03999">
        <ele>1944.61</ele>
        <time>2022-10-19T10:00:48.935Z</time>
      </trkpt>
      <trkpt lat="44.65454" lon="6.03995">
        <ele>1944.28</ele>
        <time>2022-10-19T10:01:02.577Z</time>
      </trkpt>
      <trkpt lat="44.65472" lon="6.03986">
        <ele>1942.16</ele>
        <time>2022-10-19T10:01:18.491Z</time>
      </trkpt>
      <trkpt lat="44.6549" lon="6.03981">
        <ele>1941.39</ele>
        <time>2022-10-19T10:01:32.000Z</time>
      </trkpt>
      <trkpt lat="44.65507" lon="6.03971">
        <ele>1941.41</ele>
        <time>2022-10-19T10:01:49.448Z</time>
      </trkpt>
      <trkpt lat="44.65524" lon="6.03962">
        <ele>1942.06</ele>
        <time>2022-10-19T10:02:04.209Z</time>
      </trkpt>
      <trkpt lat="44.6554" lon="6.03951">
        <ele>1943.61</ele>
        <time>2022-10-19T10:02:21.000Z</time>
      </trkpt>
      <trkpt lat="44.65558" lon="6.03944">
        <ele>1948.45</ele>
        <time>2022-10-19T10:02:56.000Z</time>
      </trkpt>
      <trkpt lat="44.65575" lon="6.03937">
        <ele>1950.86</ele>
        <time>2022-10-19T10:03:27.527Z</time>
      </trkpt>
      <trkpt lat="44.65591" lon="6.03924">
        <ele>1951.85</ele>
        <time>2022-10-19T10:03:43.149Z</time>
      </trkpt>
      <trkpt lat="44.65606" lon="6.03909">
        <ele>1952.98</ele>
        <time>2022-10-19T10:03:59.056Z</time>
      </trkpt>
      <trkpt lat="44.6562" lon="6.0389">
        <ele>1954.06</ele>
        <time>2022-10-19T10:04:17.575Z</time>
      </trkpt>
      <trkpt lat="44.65635" lon="6.03875">
        <ele>1955.86</ele>
        <time>2022-10-19T10:04:37.533Z</time>
      </trkpt>
      <trkpt lat="44.65652" lon="6.03866">
        <ele>1958.64</ele>
        <time>2022-10-19T10:04:57.131Z</time>
      </trkpt>
      <trkpt lat="44.65668" lon="6.03855">
        <ele>1961.2</ele>
        <time>2022-10-19T10:05:16.000Z</time>
      </trkpt>
      <trkpt lat="44.65683" lon="6.03841">
        <ele>1964.22</ele>
        <time>2022-10-19T10:05:35.527Z</time>
      </trkpt>
      <trkpt lat="44.65699" lon="6.0383">
        <ele>1965.44</ele>
        <time>2022-10-19T10:05:53.850Z</time>
      </trkpt>
      <trkpt lat="44.65717" lon="6.03819">
        <ele>1967.17</ele>
        <time>2022-10-19T10:06:14.935Z</time>
      </trkpt>
      <trkpt lat="44.6573" lon="6.03801">
        <ele>1965.44</ele>
        <time>2022-10-19T10:06:32.393Z</time>
      </trkpt>
      <trkpt lat="44.65748" lon="6.03794">
        <ele>1961.74</ele>
        <time>2022-10-19T10:07:08.309Z</time>
      </trkpt>
      <trkpt lat="44.65766" lon="6.03794">
        <ele>1960.27</ele>
        <time>2022-10-19T10:07:26.757Z</time>
      </trkpt>
      <trkpt lat="44.65785" lon="6.03792">
        <ele>1959.33</ele>
        <time>2022-10-19T10:07:45.575Z</time>
      </trkpt>
      <trkpt lat="44.65802" lon="6.03785">
        <ele>1958.34</ele>
        <time>2022-10-19T10:08:05.572Z</time>
      </trkpt>
      <trkpt lat="44.65821" lon="6.03784">
        <ele>1959.14</ele>
        <time>2022-10-19T10:08:26.071Z</time>
      </trkpt>
      <trkpt lat="44.65839" lon="6.03787">
        <ele>1960.17</ele>
        <time>2022-10-19T10:08:43.067Z</time>
      </trkpt>
      <trkpt lat="44.65857" lon="6.03787">
        <ele>1961.66</ele>
        <time>2022-10-19T10:09:01.996Z</time>
      </trkpt>
      <trkpt lat="44.65875" lon="6.03784">
        <ele>1963.34</ele>
        <time>2022-10-19T10:09:21.355Z</time>
      </trkpt>
      <trkpt lat="44.65894" lon="6.03783">
        <ele>1967.35</ele>
        <time>2022-10-19T10:09:48.529Z</time>
      </trkpt>
      <trkpt lat="44.65912" lon="6.0378">
        <ele>1972.08</ele>
        <time>2022-10-19T10:10:18.999Z</time>
      </trkpt>
      <trkpt lat="44.6593" lon="6.03784">
        <ele>1979.61</ele>
        <time>2022-10-19T10:11:11.550Z</time>
      </trkpt>
      <trkpt lat="44.65949" lon="6.03785">
        <ele>1985.95</ele>
        <time>2022-10-19T10:11:47.999Z</time>
      </trkpt>
      <trkpt lat="44.65966" lon="6.03778">
        <ele>1991.04</ele>
        <time>2022-10-19T10:12:16.999Z</time>
      </trkpt>
      <trkpt lat="44.65983" lon="6.03769">
        <ele>1995.82</ele>
        <time>2022-10-19T10:12:44.592Z</time>
      </trkpt>
      <trkpt lat="44.66002" lon="6.03765">
        <ele>2001.18</ele>
        <time>2022-10-19T10:13:14.456Z</time>
      </trkpt>
      <trkpt lat="44.66019" lon="6.03758">
        <ele>2005.36</ele>
        <time>2022-10-19T10:13:45.999Z</time>
      </trkpt>
      <trkpt lat="44.66038" lon="6.03757">
        <ele>2007.71</ele>
        <time>2022-10-19T10:14:02.176Z</time>
      </trkpt>
      <trkpt lat="44.66056" lon="6.03749">
        <ele>2009.29</ele>
        <time>2022-10-19T10:14:19.451Z</time>
      </trkpt>
      <trkpt lat="44.66074" lon="6.03743">
        <ele>2010.66</ele>
        <time>2022-10-19T10:14:39.999Z</time>
      </trkpt>
      <trkpt lat="44.66092" lon="6.03739">
        <ele>2015.06</ele>
        <time>2022-10-19T10:15:19.999Z</time>
      </trkpt>
      <trkpt lat="44.66108" lon="6.03727">
        <ele>2012.03</ele>
        <time>2022-10-19T10:15:56.976Z</time>
      </trkpt>
      <trkpt lat="44.66122" lon="6.03709">
        <ele>2010.5</ele>
        <time>2022-10-19T10:16:13.054Z</time>
      </trkpt>
      <trkpt lat="44.66136" lon="6.03693">
        <ele>2008.99</ele>
        <time>2022-10-19T10:16:30.813Z</time>
      </trkpt>
      <trkpt lat="44.66151" lon="6.03678">
        <ele>2007.51</ele>
        <time>2022-10-19T10:16:46.010Z</time>
      </trkpt>
      <trkpt lat="44.66164" lon="6.03659">
        <ele>2006.67</ele>
        <time>2022-10-19T10:17:05.369Z</time>
      </trkpt>
      <trkpt lat="44.66175" lon="6.03638">
        <ele>2005.39</ele>
        <time>2022-10-19T10:17:23.457Z</time>
      </trkpt>
      <trkpt lat="44.66189" lon="6.03622">
        <ele>2005.87</ele>
        <time>2022-10-19T10:17:46.077Z</time>
      </trkpt>
      <trkpt lat="44.66205" lon="6.0361">
        <ele>2008.12</ele>
        <time>2022-10-19T10:18:06.335Z</time>
      </trkpt>
      <trkpt lat="44.66223" lon="6.03603">
        <ele>2012.13</ele>
        <time>2022-10-19T10:18:32.999Z</time>
      </trkpt>
      <trkpt lat="44.6623" lon="6.0358">
        <ele>2013.82</ele>
        <time>2022-10-19T10:19:58.999Z</time>
      </trkpt>
      <trkpt lat="44.66242" lon="6.03561">
        <ele>2015.39</ele>
        <time>2022-10-19T10:22:20.354Z</time>
      </trkpt>
      <trkpt lat="44.66254" lon="6.03542">
        <ele>2017.08</ele>
        <time>2022-10-19T10:22:40.999Z</time>
      </trkpt>
      <trkpt lat="44.66262" lon="6.03517">
        <ele>2019.2</ele>
        <time>2022-10-19T10:23:05.507Z</time>
      </trkpt>
      <trkpt lat="44.66275" lon="6.035">
        <ele>2021.49</ele>
        <time>2022-10-19T10:23:25.402Z</time>
      </trkpt>
      <trkpt lat="44.66287" lon="6.0348">
        <ele>2023.88</ele>
        <time>2022-10-19T10:23:49.934Z</time>
      </trkpt>
      <trkpt lat="44.66297" lon="6.03458">
        <ele>2026.48</ele>
        <time>2022-10-19T10:24:13.892Z</time>
      </trkpt>
      <trkpt lat="44.66307" lon="6.03436">
        <ele>2030.45</ele>
        <time>2022-10-19T10:24:38.999Z</time>
      </trkpt>
      <trkpt lat="44.66318" lon="6.03416">
        <ele>2034.63</ele>
        <time>2022-10-19T10:25:02.549Z</time>
      </trkpt>
      <trkpt lat="44.66325" lon="6.03392">
        <ele>2038.88</ele>
        <time>2022-10-19T10:25:32.999Z</time>
      </trkpt>
      <trkpt lat="44.66332" lon="6.03369">
        <ele>2044.7</ele>
        <time>2022-10-19T10:26:09.012Z</time>
      </trkpt>
      <trkpt lat="44.66337" lon="6.03344">
        <ele>2047.17</ele>
        <time>2022-10-19T10:27:28.000Z</time>
      </trkpt>
      <trkpt lat="44.66343" lon="6.03368">
        <ele>2043.08</ele>
        <time>2022-10-19T10:41:54.000Z</time>
      </trkpt>
      <trkpt lat="44.66332" lon="6.03348">
        <ele>2043.24</ele>
        <time>2022-10-19T10:44:06.999Z</time>
      </trkpt>
      <trkpt lat="44.66337" lon="6.03372">
        <ele>2044.61</ele>
        <time>2022-10-19T10:46:28.999Z</time>
      </trkpt>
      <trkpt lat="44.66322" lon="6.03385">
        <ele>2043.47</ele>
        <time>2022-10-19T10:55:24.999Z</time>
      </trkpt>
      <trkpt lat="44.66327" lon="6.0336">
        <ele>2043.72</ele>
        <time>2022-10-19T10:59:35.999Z</time>
      </trkpt>
      <trkpt lat="44.6633" lon="6.03335">
        <ele>2043.21</ele>
        <time>2022-10-19T11:04:25.000Z</time>
      </trkpt>
      <trkpt lat="44.66324" lon="6.0331">
        <ele>2044.15</ele>
        <time>2022-10-19T11:13:20.397Z</time>
      </trkpt>
      <trkpt lat="44.66322" lon="6.03285">
        <ele>2042</ele>
        <time>2022-10-19T11:13:33.996Z</time>
      </trkpt>
      <trkpt lat="44.66323" lon="6.03257">
        <ele>2039.8</ele>
        <time>2022-10-19T11:13:49.000Z</time>
      </trkpt>
      <trkpt lat="44.66327" lon="6.03232">
        <ele>2037.3</ele>
        <time>2022-10-19T11:14:04.000Z</time>
      </trkpt>
      <trkpt lat="44.66334" lon="6.03209">
        <ele>2033.96</ele>
        <time>2022-10-19T11:14:22.454Z</time>
      </trkpt>
      <trkpt lat="44.6634" lon="6.03185">
        <ele>2029.62</ele>
        <time>2022-10-19T11:14:41.052Z</time>
      </trkpt>
      <trkpt lat="44.6635" lon="6.03163">
        <ele>2027.42</ele>
        <time>2022-10-19T11:14:58.288Z</time>
      </trkpt>
      <trkpt lat="44.66359" lon="6.03139">
        <ele>2023.05</ele>
        <time>2022-10-19T11:15:16.348Z</time>
      </trkpt>
      <trkpt lat="44.66366" lon="6.03115">
        <ele>2020.04</ele>
        <time>2022-10-19T11:15:33.067Z</time>
      </trkpt>
      <trkpt lat="44.66373" lon="6.03092">
        <ele>2018</ele>
        <time>2022-10-19T11:15:49.464Z</time>
      </trkpt>
      <trkpt lat="44.66378" lon="6.03067">
        <ele>2015.38</ele>
        <time>2022-10-19T11:16:03.000Z</time>
      </trkpt>
      <trkpt lat="44.66387" lon="6.03045">
        <ele>2014.05</ele>
        <time>2022-10-19T11:16:17.572Z</time>
      </trkpt>
      <trkpt lat="44.66398" lon="6.03024">
        <ele>2013.14</ele>
        <time>2022-10-19T11:16:32.231Z</time>
      </trkpt>
      <trkpt lat="44.664" lon="6.02999">
        <ele>2009.68</ele>
        <time>2022-10-19T11:16:48.910Z</time>
      </trkpt>
      <trkpt lat="44.66403" lon="6.02974">
        <ele>2000.23</ele>
        <time>2022-10-19T11:17:15.136Z</time>
      </trkpt>
      <trkpt lat="44.66402" lon="6.02948">
        <ele>1992.61</ele>
        <time>2022-10-19T11:17:37.235Z</time>
      </trkpt>
      <trkpt lat="44.66407" lon="6.02923">
        <ele>1988.65</ele>
        <time>2022-10-19T11:17:52.094Z</time>
      </trkpt>
      <trkpt lat="44.66407" lon="6.02897">
        <ele>1984.32</ele>
        <time>2022-10-19T11:18:10.090Z</time>
      </trkpt>
      <trkpt lat="44.66409" lon="6.02871">
        <ele>1975.65</ele>
        <time>2022-10-19T11:18:37.289Z</time>
      </trkpt>
      <trkpt lat="44.66415" lon="6.02846">
        <ele>1968.68</ele>
        <time>2022-10-19T11:18:57.128Z</time>
      </trkpt>
      <trkpt lat="44.66422" lon="6.02823">
        <ele>1959</ele>
        <time>2022-10-19T11:19:21.856Z</time>
      </trkpt>
      <trkpt lat="44.66433" lon="6.02803">
        <ele>1954.37</ele>
        <time>2022-10-19T11:19:40.359Z</time>
      </trkpt>
      <trkpt lat="44.66441" lon="6.0278">
        <ele>1948.35</ele>
        <time>2022-10-19T11:20:01.074Z</time>
      </trkpt>
      <trkpt lat="44.66454" lon="6.0276">
        <ele>1943.5</ele>
        <time>2022-10-19T11:20:17.332Z</time>
      </trkpt>
      <trkpt lat="44.6646" lon="6.02736">
        <ele>1938.22</ele>
        <time>2022-10-19T11:20:35.999Z</time>
      </trkpt>
      <trkpt lat="44.66461" lon="6.0271">
        <ele>1934.74</ele>
        <time>2022-10-19T11:20:52.999Z</time>
      </trkpt>
      <trkpt lat="44.66466" lon="6.02684">
        <ele>1928.2</ele>
        <time>2022-10-19T11:21:11.231Z</time>
      </trkpt>
      <trkpt lat="44.66473" lon="6.0266">
        <ele>1927.13</ele>
        <time>2022-10-19T11:21:26.999Z</time>
      </trkpt>
      <trkpt lat="44.66474" lon="6.02634">
        <ele>1925.59</ele>
        <time>2022-10-19T11:21:42.037Z</time>
      </trkpt>
      <trkpt lat="44.6647" lon="6.02609">
        <ele>1923.58</ele>
        <time>2022-10-19T11:21:56.999Z</time>
      </trkpt>
      <trkpt lat="44.66472" lon="6.02583">
        <ele>1922.38</ele>
        <time>2022-10-19T11:22:09.352Z</time>
      </trkpt>
      <trkpt lat="44.66468" lon="6.02557">
        <ele>1922.79</ele>
        <time>2022-10-19T11:22:23.999Z</time>
      </trkpt>
      <trkpt lat="44.66466" lon="6.02531">
        <ele>1922.25</ele>
        <time>2022-10-19T11:22:38.190Z</time>
      </trkpt>
      <trkpt lat="44.66459" lon="6.02507">
        <ele>1921.88</ele>
        <time>2022-10-19T11:22:51.488Z</time>
      </trkpt>
      <trkpt lat="44.66451" lon="6.02484">
        <ele>1921.42</ele>
        <time>2022-10-19T11:23:04.016Z</time>
      </trkpt>
      <trkpt lat="44.66443" lon="6.02461">
        <ele>1920.35</ele>
        <time>2022-10-19T11:23:19.095Z</time>
      </trkpt>
      <trkpt lat="44.6643" lon="6.02442">
        <ele>1920.97</ele>
        <time>2022-10-19T11:23:57.171Z</time>
      </trkpt>
      <trkpt lat="44.66417" lon="6.02423">
        <ele>1922.81</ele>
        <time>2022-10-19T11:24:10.508Z</time>
      </trkpt>
      <trkpt lat="44.66408" lon="6.024">
        <ele>1923.98</ele>
        <time>2022-10-19T11:24:25.516Z</time>
      </trkpt>
      <trkpt lat="44.66401" lon="6.02376">
        <ele>1928.33</ele>
        <time>2022-10-19T11:25:00.015Z</time>
      </trkpt>
      <trkpt lat="44.66399" lon="6.02349">
        <ele>1931.68</ele>
        <time>2022-10-19T11:25:16.493Z</time>
      </trkpt>
      <trkpt lat="44.66395" lon="6.02324">
        <ele>1937.89</ele>
        <time>2022-10-19T11:25:38.999Z</time>
      </trkpt>
      <trkpt lat="44.66381" lon="6.02307">
        <ele>1938.71</ele>
        <time>2022-10-19T11:26:27.175Z</time>
      </trkpt>
      <trkpt lat="44.66369" lon="6.02288">
        <ele>1935.41</ele>
        <time>2022-10-19T11:26:49.815Z</time>
      </trkpt>
      <trkpt lat="44.66357" lon="6.02268">
        <ele>1933.78</ele>
        <time>2022-10-19T11:27:02.999Z</time>
      </trkpt>
      <trkpt lat="44.66347" lon="6.02246">
        <ele>1932.67</ele>
        <time>2022-10-19T11:27:16.475Z</time>
      </trkpt>
      <trkpt lat="44.6633" lon="6.02238">
        <ele>1931.41</ele>
        <time>2022-10-19T11:27:41.332Z</time>
      </trkpt>
      <trkpt lat="44.66317" lon="6.0222">
        <ele>1925.99</ele>
        <time>2022-10-19T11:27:54.312Z</time>
      </trkpt>
      <trkpt lat="44.66303" lon="6.02205">
        <ele>1920.89</ele>
        <time>2022-10-19T11:28:07.489Z</time>
      </trkpt>
      <trkpt lat="44.66288" lon="6.02188">
        <ele>1916.85</ele>
        <time>2022-10-19T11:28:21.688Z</time>
      </trkpt>
      <trkpt lat="44.66274" lon="6.02172">
        <ele>1916.51</ele>
        <time>2022-10-19T11:28:34.516Z</time>
      </trkpt>
      <trkpt lat="44.66259" lon="6.02155">
        <ele>1916.47</ele>
        <time>2022-10-19T11:28:48.999Z</time>
      </trkpt>
      <trkpt lat="44.66242" lon="6.02144">
        <ele>1915.13</ele>
        <time>2022-10-19T11:29:10.795Z</time>
      </trkpt>
      <trkpt lat="44.66228" lon="6.02127">
        <ele>1915.25</ele>
        <time>2022-10-19T11:29:23.956Z</time>
      </trkpt>
      <trkpt lat="44.66214" lon="6.0211">
        <ele>1915.48</ele>
        <time>2022-10-19T11:29:36.875Z</time>
      </trkpt>
      <trkpt lat="44.66197" lon="6.021">
        <ele>1916.84</ele>
        <time>2022-10-19T11:29:49.999Z</time>
      </trkpt>
      <trkpt lat="44.66182" lon="6.02084">
        <ele>1920.16</ele>
        <time>2022-10-19T11:30:06.210Z</time>
      </trkpt>
      <trkpt lat="44.6617" lon="6.02065">
        <ele>1925.1</ele>
        <time>2022-10-19T11:30:25.464Z</time>
      </trkpt>
      <trkpt lat="44.66154" lon="6.02052">
        <ele>1929.96</ele>
        <time>2022-10-19T11:30:49.492Z</time>
      </trkpt>
      <trkpt lat="44.6614" lon="6.02035">
        <ele>1934.26</ele>
        <time>2022-10-19T11:31:09.070Z</time>
      </trkpt>
      <trkpt lat="44.66123" lon="6.02026">
        <ele>1938.02</ele>
        <time>2022-10-19T11:31:42.423Z</time>
      </trkpt>
      <trkpt lat="44.66112" lon="6.02005">
        <ele>1943.41</ele>
        <time>2022-10-19T11:32:03.506Z</time>
      </trkpt>
      <trkpt lat="44.66097" lon="6.01989">
        <ele>1948.57</ele>
        <time>2022-10-19T11:32:22.057Z</time>
      </trkpt>
      <trkpt lat="44.66081" lon="6.01977">
        <ele>1951.52</ele>
        <time>2022-10-19T11:32:40.999Z</time>
      </trkpt>
      <trkpt lat="44.66069" lon="6.01957">
        <ele>1956.81</ele>
        <time>2022-10-19T11:33:02.999Z</time>
      </trkpt>
      <trkpt lat="44.66055" lon="6.0194">
        <ele>1961.51</ele>
        <time>2022-10-19T11:33:31.170Z</time>
      </trkpt>
      <trkpt lat="44.66043" lon="6.01921">
        <ele>1967.51</ele>
        <time>2022-10-19T11:33:53.455Z</time>
      </trkpt>
      <trkpt lat="44.66034" lon="6.019">
        <ele>1975.62</ele>
        <time>2022-10-19T11:34:22.468Z</time>
      </trkpt>
      <trkpt lat="44.66024" lon="6.01879">
        <ele>1983.62</ele>
        <time>2022-10-19T11:34:52.269Z</time>
      </trkpt>
      <trkpt lat="44.66014" lon="6.01858">
        <ele>1991.09</ele>
        <time>2022-10-19T11:35:20.347Z</time>
      </trkpt>
      <trkpt lat="44.66005" lon="6.01835">
        <ele>1999.87</ele>
        <time>2022-10-19T11:35:54.375Z</time>
      </trkpt>
      <trkpt lat="44.65992" lon="6.01818">
        <ele>2007.24</ele>
        <time>2022-10-19T11:36:23.272Z</time>
      </trkpt>
      <trkpt lat="44.65975" lon="6.01807">
        <ele>2013.69</ele>
        <time>2022-10-19T11:36:52.847Z</time>
      </trkpt>
      <trkpt lat="44.6596" lon="6.01792">
        <ele>2020.46</ele>
        <time>2022-10-19T11:37:17.564Z</time>
      </trkpt>
      <trkpt lat="44.65947" lon="6.01774">
        <ele>2025.33</ele>
        <time>2022-10-19T11:37:37.233Z</time>
      </trkpt>
      <trkpt lat="44.65934" lon="6.01756">
        <ele>2030.42</ele>
        <time>2022-10-19T11:38:00.170Z</time>
      </trkpt>
      <trkpt lat="44.65932" lon="6.0173">
        <ele>2031.84</ele>
        <time>2022-10-19T11:38:23.337Z</time>
      </trkpt>
      <trkpt lat="44.65929" lon="6.01755">
        <ele>2029.48</ele>
        <time>2022-10-19T11:44:54.000Z</time>
      </trkpt>
      <trkpt lat="44.65935" lon="6.01779">
        <ele>2026.01</ele>
        <time>2022-10-19T11:45:52.651Z</time>
      </trkpt>
      <trkpt lat="44.65947" lon="6.01799">
        <ele>2021.45</ele>
        <time>2022-10-19T11:48:09.247Z</time>
      </trkpt>
      <trkpt lat="44.65963" lon="6.01811">
        <ele>2015.3</ele>
        <time>2022-10-19T11:48:29.466Z</time>
      </trkpt>
      <trkpt lat="44.65977" lon="6.01829">
        <ele>2008.09</ele>
        <time>2022-10-19T11:48:52.374Z</time>
      </trkpt>
      <trkpt lat="44.65991" lon="6.01846">
        <ele>2000.74</ele>
        <time>2022-10-19T11:49:14.233Z</time>
      </trkpt>
      <trkpt lat="44.66005" lon="6.01862">
        <ele>1993.2</ele>
        <time>2022-10-19T11:49:58.460Z</time>
      </trkpt>
      <trkpt lat="44.66014" lon="6.01885">
        <ele>1985.17</ele>
        <time>2022-10-19T11:50:20.258Z</time>
      </trkpt>
      <trkpt lat="44.66026" lon="6.01904">
        <ele>1977.47</ele>
        <time>2022-10-19T11:50:41.073Z</time>
      </trkpt>
      <trkpt lat="44.66036" lon="6.01926">
        <ele>1968.98</ele>
        <time>2022-10-19T11:51:02.999Z</time>
      </trkpt>
      <trkpt lat="44.66046" lon="6.01947">
        <ele>1961.25</ele>
        <time>2022-10-19T11:51:35.292Z</time>
      </trkpt>
      <trkpt lat="44.66058" lon="6.01965">
        <ele>1956.91</ele>
        <time>2022-10-19T11:51:49.548Z</time>
      </trkpt>
      <trkpt lat="44.66071" lon="6.01985">
        <ele>1952.28</ele>
        <time>2022-10-19T11:52:04.539Z</time>
      </trkpt>
      <trkpt lat="44.66086" lon="6.01998">
        <ele>1948.79</ele>
        <time>2022-10-19T11:52:22.255Z</time>
      </trkpt>
      <trkpt lat="44.66101" lon="6.02012">
        <ele>1943.12</ele>
        <time>2022-10-19T11:52:38.034Z</time>
      </trkpt>
      <trkpt lat="44.66115" lon="6.0203">
        <ele>1937.27</ele>
        <time>2022-10-19T11:52:57.533Z</time>
      </trkpt>
      <trkpt lat="44.66129" lon="6.02046">
        <ele>1932.89</ele>
        <time>2022-10-19T11:53:14.492Z</time>
      </trkpt>
      <trkpt lat="44.66144" lon="6.02062">
        <ele>1927.85</ele>
        <time>2022-10-19T11:53:31.461Z</time>
      </trkpt>
      <trkpt lat="44.6616" lon="6.02073">
        <ele>1923.87</ele>
        <time>2022-10-19T11:53:48.247Z</time>
      </trkpt>
      <trkpt lat="44.66172" lon="6.02093">
        <ele>1919.61</ele>
        <time>2022-10-19T11:54:02.917Z</time>
      </trkpt>
      <trkpt lat="44.66187" lon="6.02108">
        <ele>1915.83</ele>
        <time>2022-10-19T11:54:23.556Z</time>
      </trkpt>
      <trkpt lat="44.66204" lon="6.02119">
        <ele>1912.85</ele>
        <time>2022-10-19T11:54:36.252Z</time>
      </trkpt>
      <trkpt lat="44.66219" lon="6.02136">
        <ele>1919.44</ele>
        <time>2022-10-19T11:54:50.510Z</time>
      </trkpt>
      <trkpt lat="44.66234" lon="6.02149">
        <ele>1919.02</ele>
        <time>2022-10-19T11:55:03.369Z</time>
      </trkpt>
      <trkpt lat="44.66247" lon="6.02167">
        <ele>1910.55</ele>
        <time>2022-10-19T11:55:16.707Z</time>
      </trkpt>
      <trkpt lat="44.66261" lon="6.02185">
        <ele>1917.3</ele>
        <time>2022-10-19T11:55:29.077Z</time>
      </trkpt>
      <trkpt lat="44.66273" lon="6.02204">
        <ele>1916.1</ele>
        <time>2022-10-19T11:55:41.736Z</time>
      </trkpt>
      <trkpt lat="44.66287" lon="6.0222">
        <ele>1912.01</ele>
        <time>2022-10-19T11:55:54.135Z</time>
      </trkpt>
      <trkpt lat="44.66298" lon="6.02241">
        <ele>1914.16</ele>
        <time>2022-10-19T11:56:11.999Z</time>
      </trkpt>
      <trkpt lat="44.66305" lon="6.02265">
        <ele>1913.78</ele>
        <time>2022-10-19T11:56:26.427Z</time>
      </trkpt>
      <trkpt lat="44.66315" lon="6.02286">
        <ele>1914.79</ele>
        <time>2022-10-19T11:56:43.959Z</time>
      </trkpt>
      <trkpt lat="44.66327" lon="6.02305">
        <ele>1914.78</ele>
        <time>2022-10-19T11:56:59.495Z</time>
      </trkpt>
      <trkpt lat="44.66339" lon="6.02324">
        <ele>1915.31</ele>
        <time>2022-10-19T11:57:12.573Z</time>
      </trkpt>
      <trkpt lat="44.66351" lon="6.02343">
        <ele>1915.42</ele>
        <time>2022-10-19T11:57:26.999Z</time>
      </trkpt>
      <trkpt lat="44.66363" lon="6.02363">
        <ele>1915.93</ele>
        <time>2022-10-19T11:57:40.371Z</time>
      </trkpt>
      <trkpt lat="44.66374" lon="6.02384">
        <ele>1919.23</ele>
        <time>2022-10-19T11:57:54.999Z</time>
      </trkpt>
      <trkpt lat="44.66385" lon="6.02405">
        <ele>1916.45</ele>
        <time>2022-10-19T11:58:07.328Z</time>
      </trkpt>
      <trkpt lat="44.66398" lon="6.02422">
        <ele>1916.21</ele>
        <time>2022-10-19T11:58:21.999Z</time>
      </trkpt>
      <trkpt lat="44.66408" lon="6.02444">
        <ele>1917.69</ele>
        <time>2022-10-19T11:58:36.355Z</time>
      </trkpt>
      <trkpt lat="44.66423" lon="6.0246">
        <ele>1916.53</ele>
        <time>2022-10-19T11:58:50.999Z</time>
      </trkpt>
      <trkpt lat="44.6643" lon="6.02484">
        <ele>1916.87</ele>
        <time>2022-10-19T11:59:04.574Z</time>
      </trkpt>
      <trkpt lat="44.6644" lon="6.02508">
        <ele>1917.16</ele>
        <time>2022-10-19T11:59:20.493Z</time>
      </trkpt>
      <trkpt lat="44.66448" lon="6.02532">
        <ele>1920.04</ele>
        <time>2022-10-19T11:59:36.459Z</time>
      </trkpt>
      <trkpt lat="44.66452" lon="6.02557">
        <ele>1921.95</ele>
        <time>2022-10-19T11:59:51.460Z</time>
      </trkpt>
      <trkpt lat="44.66455" lon="6.02583">
        <ele>1923.2</ele>
        <time>2022-10-19T12:00:05.493Z</time>
      </trkpt>
      <trkpt lat="44.66458" lon="6.02608">
        <ele>1926.18</ele>
        <time>2022-10-19T12:00:22.276Z</time>
      </trkpt>
      <trkpt lat="44.66457" lon="6.02634">
        <ele>1927.97</ele>
        <time>2022-10-19T12:00:38.533Z</time>
      </trkpt>
      <trkpt lat="44.66461" lon="6.02658">
        <ele>1928.95</ele>
        <time>2022-10-19T12:00:53.212Z</time>
      </trkpt>
      <trkpt lat="44.66466" lon="6.02683">
        <ele>1930.72</ele>
        <time>2022-10-19T12:01:08.970Z</time>
      </trkpt>
      <trkpt lat="44.66456" lon="6.02705">
        <ele>1935.64</ele>
        <time>2022-10-19T12:01:29.049Z</time>
      </trkpt>
      <trkpt lat="44.66453" lon="6.02731">
        <ele>1941.71</ele>
        <time>2022-10-19T12:01:57.999Z</time>
      </trkpt>
      <trkpt lat="44.66445" lon="6.02753">
        <ele>1947.81</ele>
        <time>2022-10-19T12:02:22.076Z</time>
      </trkpt>
      <trkpt lat="44.66437" lon="6.02776">
        <ele>1951.63</ele>
        <time>2022-10-19T12:02:43.292Z</time>
      </trkpt>
      <trkpt lat="44.66429" lon="6.02799">
        <ele>1957.18</ele>
        <time>2022-10-19T12:03:08.970Z</time>
      </trkpt>
      <trkpt lat="44.66416" lon="6.02817">
        <ele>1963.04</ele>
        <time>2022-10-19T12:03:34.397Z</time>
      </trkpt>
      <trkpt lat="44.66409" lon="6.02841">
        <ele>1971.19</ele>
        <time>2022-10-19T12:04:02.213Z</time>
      </trkpt>
      <trkpt lat="44.664" lon="6.02863">
        <ele>1977.19</ele>
        <time>2022-10-19T12:04:24.451Z</time>
      </trkpt>
      <trkpt lat="44.66407" lon="6.02887">
        <ele>1986.13</ele>
        <time>2022-10-19T12:04:56.391Z</time>
      </trkpt>
      <trkpt lat="44.66405" lon="6.02912">
        <ele>1992.41</ele>
        <time>2022-10-19T12:05:34.615Z</time>
      </trkpt>
      <trkpt lat="44.664" lon="6.02936">
        <ele>1996.86</ele>
        <time>2022-10-19T12:05:54.252Z</time>
      </trkpt>
      <trkpt lat="44.66395" lon="6.02961">
        <ele>2001.73</ele>
        <time>2022-10-19T12:06:17.999Z</time>
      </trkpt>
      <trkpt lat="44.66399" lon="6.02986">
        <ele>2009.82</ele>
        <time>2022-10-19T12:06:53.154Z</time>
      </trkpt>
      <trkpt lat="44.66393" lon="6.03011">
        <ele>2016.75</ele>
        <time>2022-10-19T12:07:29.447Z</time>
      </trkpt>
      <trkpt lat="44.66386" lon="6.03035">
        <ele>2019.48</ele>
        <time>2022-10-19T12:08:18.000Z</time>
      </trkpt>
      <trkpt lat="44.66377" lon="6.03057">
        <ele>2020.87</ele>
        <time>2022-10-19T12:08:44.000Z</time>
      </trkpt>
      <trkpt lat="44.66369" lon="6.0308">
        <ele>2022.86</ele>
        <time>2022-10-19T12:09:03.134Z</time>
      </trkpt>
      <trkpt lat="44.66363" lon="6.03104">
        <ele>2024.53</ele>
        <time>2022-10-19T12:09:47.000Z</time>
      </trkpt>
      <trkpt lat="44.66352" lon="6.03125">
        <ele>2027.46</ele>
        <time>2022-10-19T12:10:20.996Z</time>
      </trkpt>
      <trkpt lat="44.66344" lon="6.03148">
        <ele>2030.83</ele>
        <time>2022-10-19T12:10:39.292Z</time>
      </trkpt>
      <trkpt lat="44.66336" lon="6.03171">
        <ele>2034.3</ele>
        <time>2022-10-19T12:10:58.000Z</time>
      </trkpt>
      <trkpt lat="44.66329" lon="6.03195">
        <ele>2038.79</ele>
        <time>2022-10-19T12:11:21.000Z</time>
      </trkpt>
      <trkpt lat="44.66319" lon="6.03216">
        <ele>2042.09</ele>
        <time>2022-10-19T12:11:42.096Z</time>
      </trkpt>
      <trkpt lat="44.66321" lon="6.03242">
        <ele>2044.7</ele>
        <time>2022-10-19T12:12:07.534Z</time>
      </trkpt>
      <trkpt lat="44.66318" lon="6.03267">
        <ele>2043.98</ele>
        <time>2022-10-19T12:12:26.000Z</time>
      </trkpt>
      <trkpt lat="44.66318" lon="6.03292">
        <ele>2045.5</ele>
        <time>2022-10-19T12:12:43.459Z</time>
      </trkpt>
      <trkpt lat="44.66322" lon="6.03317">
        <ele>2048.05</ele>
        <time>2022-10-19T12:13:07.460Z</time>
      </trkpt>
      <trkpt lat="44.66322" lon="6.03343">
        <ele>2050.75</ele>
        <time>2022-10-19T12:13:29.032Z</time>
      </trkpt>
      <trkpt lat="44.66326" lon="6.03368">
        <ele>2048.77</ele>
        <time>2022-10-19T12:22:48.000Z</time>
      </trkpt>
      <trkpt lat="44.66342" lon="6.03379">
        <ele>2038.64</ele>
        <time>2022-10-19T12:23:26.394Z</time>
      </trkpt>
      <trkpt lat="44.6636" lon="6.03385">
        <ele>2028</ele>
        <time>2022-10-19T12:24:08.514Z</time>
      </trkpt>
      <trkpt lat="44.66377" lon="6.03393">
        <ele>2016.23</ele>
        <time>2022-10-19T12:24:56.000Z</time>
      </trkpt>
      <trkpt lat="44.66392" lon="6.03408">
        <ele>2003.51</ele>
        <time>2022-10-19T12:27:05.999Z</time>
      </trkpt>
      <trkpt lat="44.66411" lon="6.03409">
        <ele>1994.43</ele>
        <time>2022-10-19T12:27:29.690Z</time>
      </trkpt>
      <trkpt lat="44.66426" lon="6.03422">
        <ele>1984.03</ele>
        <time>2022-10-19T12:29:00.096Z</time>
      </trkpt>
      <trkpt lat="44.66442" lon="6.03433">
        <ele>1975.86</ele>
        <time>2022-10-19T12:29:21.999Z</time>
      </trkpt>
      <trkpt lat="44.66459" lon="6.03443">
        <ele>1963.73</ele>
        <time>2022-10-19T12:29:58.391Z</time>
      </trkpt>
      <trkpt lat="44.66474" lon="6.03457">
        <ele>1953.83</ele>
        <time>2022-10-19T12:30:25.050Z</time>
      </trkpt>
      <trkpt lat="44.66492" lon="6.03466">
        <ele>1944.39</ele>
        <time>2022-10-19T12:30:56.370Z</time>
      </trkpt>
      <trkpt lat="44.66497" lon="6.03491">
        <ele>1933.65</ele>
        <time>2022-10-19T12:31:23.999Z</time>
      </trkpt>
      <trkpt lat="44.66514" lon="6.03501">
        <ele>1922.69</ele>
        <time>2022-10-19T12:32:06.394Z</time>
      </trkpt>
      <trkpt lat="44.66532" lon="6.03506">
        <ele>1916.69</ele>
        <time>2022-10-19T12:32:28.292Z</time>
      </trkpt>
      <trkpt lat="44.6655" lon="6.03497">
        <ele>1908.1</ele>
        <time>2022-10-19T12:32:54.250Z</time>
      </trkpt>
      <trkpt lat="44.66565" lon="6.03509">
        <ele>1899.09</ele>
        <time>2022-10-19T12:33:40.510Z</time>
      </trkpt>
      <trkpt lat="44.66575" lon="6.03531">
        <ele>1889.93</ele>
        <time>2022-10-19T12:34:20.999Z</time>
      </trkpt>
      <trkpt lat="44.66571" lon="6.03556">
        <ele>1883.08</ele>
        <time>2022-10-19T12:34:39.999Z</time>
      </trkpt>
      <trkpt lat="44.66564" lon="6.03579">
        <ele>1878.2</ele>
        <time>2022-10-19T12:34:55.690Z</time>
      </trkpt>
      <trkpt lat="44.66554" lon="6.036">
        <ele>1872.86</ele>
        <time>2022-10-19T12:35:11.931Z</time>
      </trkpt>
      <trkpt lat="44.66555" lon="6.03626">
        <ele>1863.64</ele>
        <time>2022-10-19T12:35:38.992Z</time>
      </trkpt>
      <trkpt lat="44.66564" lon="6.03648">
        <ele>1855.28</ele>
        <time>2022-10-19T12:36:12.295Z</time>
      </trkpt>
      <trkpt lat="44.66582" lon="6.03652">
        <ele>1846.51</ele>
        <time>2022-10-19T12:36:59.106Z</time>
      </trkpt>
      <trkpt lat="44.666" lon="6.03649">
        <ele>1838.07</ele>
        <time>2022-10-19T12:37:29.434Z</time>
      </trkpt>
      <trkpt lat="44.66619" lon="6.03652">
        <ele>1832.36</ele>
        <time>2022-10-19T12:37:51.288Z</time>
      </trkpt>
      <trkpt lat="44.66637" lon="6.03652">
        <ele>1827.33</ele>
        <time>2022-10-19T12:38:06.999Z</time>
      </trkpt>
      <trkpt lat="44.66655" lon="6.03658">
        <ele>1819.86</ele>
        <time>2022-10-19T12:38:29.376Z</time>
      </trkpt>
      <trkpt lat="44.66669" lon="6.03674">
        <ele>1815.65</ele>
        <time>2022-10-19T12:38:51.430Z</time>
      </trkpt>
      <trkpt lat="44.6667" lon="6.037">
        <ele>1813.26</ele>
        <time>2022-10-19T12:39:05.459Z</time>
      </trkpt>
      <trkpt lat="44.66671" lon="6.03725">
        <ele>1810.61</ele>
        <time>2022-10-19T12:39:36.275Z</time>
      </trkpt>
      <trkpt lat="44.66661" lon="6.03748">
        <ele>1810.45</ele>
        <time>2022-10-19T12:39:55.554Z</time>
      </trkpt>
      <trkpt lat="44.66665" lon="6.03773">
        <ele>1805.22</ele>
        <time>2022-10-19T12:40:45.269Z</time>
      </trkpt>
      <trkpt lat="44.6668" lon="6.03789">
        <ele>1802.25</ele>
        <time>2022-10-19T12:41:03.336Z</time>
      </trkpt>
      <trkpt lat="44.66677" lon="6.03814">
        <ele>1796.14</ele>
        <time>2022-10-19T12:41:27.752Z</time>
      </trkpt>
      <trkpt lat="44.66686" lon="6.03836">
        <ele>1791.52</ele>
        <time>2022-10-19T12:41:49.590Z</time>
      </trkpt>
      <trkpt lat="44.66701" lon="6.0385">
        <ele>1784.73</ele>
        <time>2022-10-19T12:42:16.909Z</time>
      </trkpt>
      <trkpt lat="44.66705" lon="6.03877">
        <ele>1785.06</ele>
        <time>2022-10-19T12:42:33.608Z</time>
      </trkpt>
      <trkpt lat="44.6671" lon="6.03902">
        <ele>1783.07</ele>
        <time>2022-10-19T12:43:38.133Z</time>
      </trkpt>
      <trkpt lat="44.66709" lon="6.03928">
        <ele>1780.97</ele>
        <time>2022-10-19T12:43:59.372Z</time>
      </trkpt>
      <trkpt lat="44.66723" lon="6.03944">
        <ele>1777.87</ele>
        <time>2022-10-19T12:44:35.028Z</time>
      </trkpt>
      <trkpt lat="44.66738" lon="6.0396">
        <ele>1775.23</ele>
        <time>2022-10-19T12:44:52.177Z</time>
      </trkpt>
      <trkpt lat="44.6675" lon="6.0398">
        <ele>1773.75</ele>
        <time>2022-10-19T12:45:05.296Z</time>
      </trkpt>
      <trkpt lat="44.6676" lon="6.04002">
        <ele>1771.16</ele>
        <time>2022-10-19T12:45:30.892Z</time>
      </trkpt>
      <trkpt lat="44.66764" lon="6.04028">
        <ele>1768.23</ele>
        <time>2022-10-19T12:45:46.000Z</time>
      </trkpt>
      <trkpt lat="44.66771" lon="6.04052">
        <ele>1766.57</ele>
        <time>2022-10-19T12:46:00.458Z</time>
      </trkpt>
      <trkpt lat="44.66779" lon="6.04074">
        <ele>1763.63</ele>
        <time>2022-10-19T12:46:15.996Z</time>
      </trkpt>
      <trkpt lat="44.66782" lon="6.041">
        <ele>1762.12</ele>
        <time>2022-10-19T12:46:31.288Z</time>
      </trkpt>
      <trkpt lat="44.66788" lon="6.04125">
        <ele>1759.32</ele>
        <time>2022-10-19T12:46:46.298Z</time>
      </trkpt>
      <trkpt lat="44.66791" lon="6.04152">
        <ele>1757.31</ele>
        <time>2022-10-19T12:47:06.494Z</time>
      </trkpt>
      <trkpt lat="44.66789" lon="6.04177">
        <ele>1755.13</ele>
        <time>2022-10-19T12:47:21.813Z</time>
      </trkpt>
      <trkpt lat="44.66792" lon="6.04203">
        <ele>1752.61</ele>
        <time>2022-10-19T12:47:39.000Z</time>
      </trkpt>
      <trkpt lat="44.66794" lon="6.04228">
        <ele>1750.51</ele>
        <time>2022-10-19T12:47:56.230Z</time>
      </trkpt>
      <trkpt lat="44.66798" lon="6.04253">
        <ele>1747.86</ele>
        <time>2022-10-19T12:48:10.655Z</time>
      </trkpt>
      <trkpt lat="44.66804" lon="6.04277">
        <ele>1745.68</ele>
        <time>2022-10-19T12:48:33.915Z</time>
      </trkpt>
      <trkpt lat="44.66808" lon="6.04303">
        <ele>1743.28</ele>
        <time>2022-10-19T12:48:47.894Z</time>
      </trkpt>
      <trkpt lat="44.6682" lon="6.04322">
        <ele>1739.51</ele>
        <time>2022-10-19T12:49:06.000Z</time>
      </trkpt>
      <trkpt lat="44.66838" lon="6.04327">
        <ele>1737.99</ele>
        <time>2022-10-19T12:49:22.489Z</time>
      </trkpt>
      <trkpt lat="44.66854" lon="6.04312">
        <ele>1734.93</ele>
        <time>2022-10-19T12:49:48.000Z</time>
      </trkpt>
      <trkpt lat="44.66872" lon="6.04306">
        <ele>1732.05</ele>
        <time>2022-10-19T12:50:03.476Z</time>
      </trkpt>
      <trkpt lat="44.6689" lon="6.04313">
        <ele>1730.34</ele>
        <time>2022-10-19T12:50:24.195Z</time>
      </trkpt>
      <trkpt lat="44.66908" lon="6.04319">
        <ele>1728.11</ele>
        <time>2022-10-19T12:50:44.000Z</time>
      </trkpt>
      <trkpt lat="44.66926" lon="6.04316">
        <ele>1725.68</ele>
        <time>2022-10-19T12:51:01.190Z</time>
      </trkpt>
      <trkpt lat="44.66942" lon="6.04304">
        <ele>1721.78</ele>
        <time>2022-10-19T12:51:27.487Z</time>
      </trkpt>
      <trkpt lat="44.66956" lon="6.04287">
        <ele>1720.79</ele>
        <time>2022-10-19T12:51:42.776Z</time>
      </trkpt>
      <trkpt lat="44.66974" lon="6.04287">
        <ele>1717.13</ele>
        <time>2022-10-19T12:52:05.348Z</time>
      </trkpt>
      <trkpt lat="44.66985" lon="6.04267">
        <ele>1713.91</ele>
        <time>2022-10-19T12:52:25.177Z</time>
      </trkpt>
      <trkpt lat="44.67" lon="6.04252">
        <ele>1711.48</ele>
        <time>2022-10-19T12:52:44.513Z</time>
      </trkpt>
      <trkpt lat="44.67018" lon="6.04252">
        <ele>1709.97</ele>
        <time>2022-10-19T12:53:02.000Z</time>
      </trkpt>
      <trkpt lat="44.67034" lon="6.04264">
        <ele>1707.15</ele>
        <time>2022-10-19T12:53:19.458Z</time>
      </trkpt>
      <trkpt lat="44.67047" lon="6.04246">
        <ele>1702.78</ele>
        <time>2022-10-19T12:57:47.393Z</time>
      </trkpt>
      <trkpt lat="44.67064" lon="6.04235">
        <ele>1700.54</ele>
        <time>2022-10-19T12:58:02.010Z</time>
      </trkpt>
      <trkpt lat="44.67081" lon="6.04242">
        <ele>1696.96</ele>
        <time>2022-10-19T12:58:20.389Z</time>
      </trkpt>
      <trkpt lat="44.67064" lon="6.04249">
        <ele>1693.29</ele>
        <time>2022-10-19T12:58:39.289Z</time>
      </trkpt>
      <trkpt lat="44.67081" lon="6.04257">
        <ele>1685.21</ele>
        <time>2022-10-19T12:59:15.496Z</time>
      </trkpt>
      <trkpt lat="44.67099" lon="6.04263">
        <ele>1682.92</ele>
        <time>2022-10-19T12:59:34.234Z</time>
      </trkpt>
      <trkpt lat="44.67081" lon="6.04265">
        <ele>1677.74</ele>
        <time>2022-10-19T13:00:10.372Z</time>
      </trkpt>
      <trkpt lat="44.67066" lon="6.04279">
        <ele>1672.71</ele>
        <time>2022-10-19T13:00:30.869Z</time>
      </trkpt>
      <trkpt lat="44.67057" lon="6.04302">
        <ele>1669.28</ele>
        <time>2022-10-19T13:00:50.269Z</time>
      </trkpt>
      <trkpt lat="44.67042" lon="6.04319">
        <ele>1666.14</ele>
        <time>2022-10-19T13:01:05.276Z</time>
      </trkpt>
      <trkpt lat="44.67024" lon="6.04318">
        <ele>1660.72</ele>
        <time>2022-10-19T13:01:47.999Z</time>
      </trkpt>
      <trkpt lat="44.67011" lon="6.04335">
        <ele>1658.52</ele>
        <time>2022-10-19T13:02:56.999Z</time>
      </trkpt>
      <trkpt lat="44.67028" lon="6.04325">
        <ele>1655.5</ele>
        <time>2022-10-19T13:03:27.890Z</time>
      </trkpt>
      <trkpt lat="44.67045" lon="6.04332">
        <ele>1653.51</ele>
        <time>2022-10-19T13:03:46.586Z</time>
      </trkpt>
      <trkpt lat="44.67063" lon="6.04328">
        <ele>1649.88</ele>
        <time>2022-10-19T13:04:11.175Z</time>
      </trkpt>
      <trkpt lat="44.67074" lon="6.04307">
        <ele>1646.31</ele>
        <time>2022-10-19T13:04:29.935Z</time>
      </trkpt>
      <trkpt lat="44.67092" lon="6.04313">
        <ele>1635.12</ele>
        <time>2022-10-19T13:05:45.897Z</time>
      </trkpt>
      <trkpt lat="44.67109" lon="6.04301">
        <ele>1628.52</ele>
        <time>2022-10-19T13:06:12.653Z</time>
      </trkpt>
      <trkpt lat="44.67105" lon="6.04326">
        <ele>1624.5</ele>
        <time>2022-10-19T13:06:31.174Z</time>
      </trkpt>
      <trkpt lat="44.67095" lon="6.04349">
        <ele>1621.68</ele>
        <time>2022-10-19T13:06:46.334Z</time>
      </trkpt>
      <trkpt lat="44.67088" lon="6.04373">
        <ele>1616.14</ele>
        <time>2022-10-19T13:07:03.232Z</time>
      </trkpt>
      <trkpt lat="44.67076" lon="6.04392">
        <ele>1612.97</ele>
        <time>2022-10-19T13:07:26.459Z</time>
      </trkpt>
      <trkpt lat="44.67061" lon="6.04406">
        <ele>1609.52</ele>
        <time>2022-10-19T13:07:43.999Z</time>
      </trkpt>
      <trkpt lat="44.67042" lon="6.04412">
        <ele>1606.13</ele>
        <time>2022-10-19T13:08:05.334Z</time>
      </trkpt>
      <trkpt lat="44.67031" lon="6.04433">
        <ele>1603.45</ele>
        <time>2022-10-19T13:08:18.034Z</time>
      </trkpt>
      <trkpt lat="44.67021" lon="6.04454">
        <ele>1598.91</ele>
        <time>2022-10-19T13:08:35.393Z</time>
      </trkpt>
      <trkpt lat="44.67009" lon="6.04474">
        <ele>1595.4</ele>
        <time>2022-10-19T13:08:53.849Z</time>
      </trkpt>
      <trkpt lat="44.66996" lon="6.04493">
        <ele>1592.32</ele>
        <time>2022-10-19T13:09:08.138Z</time>
      </trkpt>
      <trkpt lat="44.66977" lon="6.04497">
        <ele>1588.43</ele>
        <time>2022-10-19T13:09:26.135Z</time>
      </trkpt>
      <trkpt lat="44.66959" lon="6.045">
        <ele>1583.58</ele>
        <time>2022-10-19T13:09:46.074Z</time>
      </trkpt>
      <trkpt lat="44.66945" lon="6.04517">
        <ele>1581.08</ele>
        <time>2022-10-19T13:09:59.973Z</time>
      </trkpt>
      <trkpt lat="44.66928" lon="6.04525">
        <ele>1578.18</ele>
        <time>2022-10-19T13:10:15.569Z</time>
      </trkpt>
      <trkpt lat="44.66911" lon="6.04534">
        <ele>1574.91</ele>
        <time>2022-10-19T13:10:33.999Z</time>
      </trkpt>
      <trkpt lat="44.66893" lon="6.04531">
        <ele>1571.36</ele>
        <time>2022-10-19T13:10:51.191Z</time>
      </trkpt>
      <trkpt lat="44.66875" lon="6.04531">
        <ele>1568.77</ele>
        <time>2022-10-19T13:11:07.370Z</time>
      </trkpt>
      <trkpt lat="44.66863" lon="6.04551">
        <ele>1565.92</ele>
        <time>2022-10-19T13:11:24.189Z</time>
      </trkpt>
      <trkpt lat="44.66845" lon="6.04553">
        <ele>1562.04</ele>
        <time>2022-10-19T13:11:42.608Z</time>
      </trkpt>
      <trkpt lat="44.66828" lon="6.04544">
        <ele>1559.01</ele>
        <time>2022-10-19T13:12:06.596Z</time>
      </trkpt>
      <trkpt lat="44.66811" lon="6.04534">
        <ele>1555.5</ele>
        <time>2022-10-19T13:12:24.276Z</time>
      </trkpt>
      <trkpt lat="44.66797" lon="6.04517">
        <ele>1552.84</ele>
        <time>2022-10-19T13:12:40.999Z</time>
      </trkpt>
      <trkpt lat="44.6678" lon="6.04508">
        <ele>1550.06</ele>
        <time>2022-10-19T13:12:58.891Z</time>
      </trkpt>
      <trkpt lat="44.66762" lon="6.04504">
        <ele>1546.48</ele>
        <time>2022-10-19T13:13:17.999Z</time>
      </trkpt>
      <trkpt lat="44.66744" lon="6.0451">
        <ele>1543.27</ele>
        <time>2022-10-19T13:13:54.276Z</time>
      </trkpt>
      <trkpt lat="44.66726" lon="6.04514">
        <ele>1540.5</ele>
        <time>2022-10-19T13:14:08.033Z</time>
      </trkpt>
      <trkpt lat="44.66708" lon="6.04511">
        <ele>1537.69</ele>
        <time>2022-10-19T13:14:24.891Z</time>
      </trkpt>
      <trkpt lat="44.66689" lon="6.04512">
        <ele>1534.49</ele>
        <time>2022-10-19T13:14:46.250Z</time>
      </trkpt>
      <trkpt lat="44.66678" lon="6.04493">
        <ele>1531.45</ele>
        <time>2022-10-19T13:15:06.998Z</time>
      </trkpt>
      <trkpt lat="44.6669" lon="6.04512">
        <ele>1520.55</ele>
        <time>2022-10-19T13:16:02.469Z</time>
      </trkpt>
      <trkpt lat="44.66698" lon="6.04535">
        <ele>1518.66</ele>
        <time>2022-10-19T13:16:22.874Z</time>
      </trkpt>
      <trkpt lat="44.66716" lon="6.04541">
        <ele>1516.24</ele>
        <time>2022-10-19T13:17:21.394Z</time>
      </trkpt>
      <trkpt lat="44.66732" lon="6.04554">
        <ele>1512.24</ele>
        <time>2022-10-19T13:17:37.756Z</time>
      </trkpt>
      <trkpt lat="44.66746" lon="6.04571">
        <ele>1510.15</ele>
        <time>2022-10-19T13:17:56.375Z</time>
      </trkpt>
      <trkpt lat="44.66761" lon="6.04586">
        <ele>1507.43</ele>
        <time>2022-10-19T13:18:14.055Z</time>
      </trkpt>
      <trkpt lat="44.66775" lon="6.04603">
        <ele>1504.8</ele>
        <time>2022-10-19T13:18:29.534Z</time>
      </trkpt>
      <trkpt lat="44.66784" lon="6.04625">
        <ele>1501.64</ele>
        <time>2022-10-19T13:18:44.552Z</time>
      </trkpt>
      <trkpt lat="44.668" lon="6.04639">
        <ele>1498.17</ele>
        <time>2022-10-19T13:19:01.012Z</time>
      </trkpt>
      <trkpt lat="44.66814" lon="6.04654">
        <ele>1495.61</ele>
        <time>2022-10-19T13:19:18.000Z</time>
      </trkpt>
      <trkpt lat="44.66831" lon="6.04666">
        <ele>1492.56</ele>
        <time>2022-10-19T13:19:32.220Z</time>
      </trkpt>
      <trkpt lat="44.66849" lon="6.04668">
        <ele>1490.38</ele>
        <time>2022-10-19T13:19:45.094Z</time>
      </trkpt>
      <trkpt lat="44.66866" lon="6.04679">
        <ele>1487.75</ele>
        <time>2022-10-19T13:20:02.000Z</time>
      </trkpt>
      <trkpt lat="44.66884" lon="6.04686">
        <ele>1484.84</ele>
        <time>2022-10-19T13:20:44.390Z</time>
      </trkpt>
      <trkpt lat="44.66903" lon="6.04682">
        <ele>1482.3</ele>
        <time>2022-10-19T13:21:01.389Z</time>
      </trkpt>
      <trkpt lat="44.66921" lon="6.04688">
        <ele>1480.32</ele>
        <time>2022-10-19T13:21:17.896Z</time>
      </trkpt>
      <trkpt lat="44.66938" lon="6.04682">
        <ele>1476.67</ele>
        <time>2022-10-19T13:21:35.000Z</time>
      </trkpt>
      <trkpt lat="44.66957" lon="6.04682">
        <ele>1474.55</ele>
        <time>2022-10-19T13:21:49.135Z</time>
      </trkpt>
      <trkpt lat="44.66975" lon="6.04687">
        <ele>1471</ele>
        <time>2022-10-19T13:22:12.893Z</time>
      </trkpt>
      <trkpt lat="44.66993" lon="6.04684">
        <ele>1468.33</ele>
        <time>2022-10-19T13:22:29.468Z</time>
      </trkpt>
      <trkpt lat="44.6701" lon="6.04677">
        <ele>1467.46</ele>
        <time>2022-10-19T13:22:44.188Z</time>
      </trkpt>
      <trkpt lat="44.67028" lon="6.0468">
        <ele>1463.55</ele>
        <time>2022-10-19T13:23:00.000Z</time>
      </trkpt>
      <trkpt lat="44.67046" lon="6.04687">
        <ele>1460.34</ele>
        <time>2022-10-19T13:23:15.513Z</time>
      </trkpt>
      <trkpt lat="44.67064" lon="6.04683">
        <ele>1460.32</ele>
        <time>2022-10-19T13:23:33.793Z</time>
      </trkpt>
      <trkpt lat="44.6708" lon="6.04672">
        <ele>1455.48</ele>
        <time>2022-10-19T13:23:49.000Z</time>
      </trkpt>
      <trkpt lat="44.67099" lon="6.04672">
        <ele>1451</ele>
        <time>2022-10-19T13:24:06.391Z</time>
      </trkpt>
      <trkpt lat="44.67117" lon="6.04679">
        <ele>1448.52</ele>
        <time>2022-10-19T13:24:22.000Z</time>
      </trkpt>
      <trkpt lat="44.67136" lon="6.04685">
        <ele>1445.47</ele>
        <time>2022-10-19T13:24:37.269Z</time>
      </trkpt>
      <trkpt lat="44.67154" lon="6.04679">
        <ele>1443.21</ele>
        <time>2022-10-19T13:24:53.000Z</time>
      </trkpt>
      <trkpt lat="44.67169" lon="6.04694">
        <ele>1434.94</ele>
        <time>2022-10-19T13:25:17.493Z</time>
      </trkpt>
      <trkpt lat="44.67164" lon="6.0472">
        <ele>1429.6</ele>
        <time>2022-10-19T13:25:34.490Z</time>
      </trkpt>
      <trkpt lat="44.67151" lon="6.04738">
        <ele>1427.56</ele>
        <time>2022-10-19T13:25:49.371Z</time>
      </trkpt>
      <trkpt lat="44.67135" lon="6.04752">
        <ele>1424.97</ele>
        <time>2022-10-19T13:26:05.208Z</time>
      </trkpt>
      <trkpt lat="44.67118" lon="6.04762">
        <ele>1421.19</ele>
        <time>2022-10-19T13:26:21.996Z</time>
      </trkpt>
      <trkpt lat="44.671" lon="6.0477">
        <ele>1417.61</ele>
        <time>2022-10-19T13:26:42.000Z</time>
      </trkpt>
      <trkpt lat="44.67082" lon="6.04778">
        <ele>1415.6</ele>
        <time>2022-10-19T13:26:55.032Z</time>
      </trkpt>
      <trkpt lat="44.67066" lon="6.04789">
        <ele>1412.93</ele>
        <time>2022-10-19T13:27:07.292Z</time>
      </trkpt>
      <trkpt lat="44.67049" lon="6.04801">
        <ele>1410.22</ele>
        <time>2022-10-19T13:27:22.890Z</time>
      </trkpt>
      <trkpt lat="44.6703" lon="6.04806">
        <ele>1407.65</ele>
        <time>2022-10-19T13:27:37.349Z</time>
      </trkpt>
      <trkpt lat="44.67013" lon="6.0481">
        <ele>1404.86</ele>
        <time>2022-10-19T13:27:55.509Z</time>
      </trkpt>
      <trkpt lat="44.66996" lon="6.0482">
        <ele>1402.28</ele>
        <time>2022-10-19T13:28:11.337Z</time>
      </trkpt>
      <trkpt lat="44.66979" lon="6.0483">
        <ele>1400.43</ele>
        <time>2022-10-19T13:28:25.015Z</time>
      </trkpt>
      <trkpt lat="44.66961" lon="6.04834">
        <ele>1397.42</ele>
        <time>2022-10-19T13:28:42.454Z</time>
      </trkpt>
      <trkpt lat="44.66943" lon="6.04834">
        <ele>1395.26</ele>
        <time>2022-10-19T13:28:57.393Z</time>
      </trkpt>
      <trkpt lat="44.66924" lon="6.0484">
        <ele>1394.09</ele>
        <time>2022-10-19T13:29:11.000Z</time>
      </trkpt>
      <trkpt lat="44.66907" lon="6.0485">
        <ele>1391.17</ele>
        <time>2022-10-19T13:29:25.470Z</time>
      </trkpt>
      <trkpt lat="44.66889" lon="6.04853">
        <ele>1388.65</ele>
        <time>2022-10-19T13:29:42.000Z</time>
      </trkpt>
      <trkpt lat="44.66871" lon="6.04852">
        <ele>1386.76</ele>
        <time>2022-10-19T13:29:56.673Z</time>
      </trkpt>
      <trkpt lat="44.66854" lon="6.04845">
        <ele>1385.01</ele>
        <time>2022-10-19T13:30:12.033Z</time>
      </trkpt>
      <trkpt lat="44.66835" lon="6.04841">
        <ele>1382.06</ele>
        <time>2022-10-19T13:30:30.000Z</time>
      </trkpt>
      <trkpt lat="44.66817" lon="6.04844">
        <ele>1378.46</ele>
        <time>2022-10-19T13:30:46.090Z</time>
      </trkpt>
      <trkpt lat="44.66799" lon="6.04847">
        <ele>1377.16</ele>
        <time>2022-10-19T13:31:02.008Z</time>
      </trkpt>
      <trkpt lat="44.66782" lon="6.04855">
        <ele>1374.29</ele>
        <time>2022-10-19T13:31:18.958Z</time>
      </trkpt>
      <trkpt lat="44.66766" lon="6.04867">
        <ele>1372.86</ele>
        <time>2022-10-19T13:31:31.975Z</time>
      </trkpt>
      <trkpt lat="44.66747" lon="6.04864">
        <ele>1371.09</ele>
        <time>2022-10-19T13:31:47.055Z</time>
      </trkpt>
      <trkpt lat="44.66765" lon="6.04865">
        <ele>1365.68</ele>
        <time>2022-10-19T13:32:15.109Z</time>
      </trkpt>
      <trkpt lat="44.66783" lon="6.04868">
        <ele>1364.86</ele>
        <time>2022-10-19T13:32:27.308Z</time>
      </trkpt>
      <trkpt lat="44.66802" lon="6.04871">
        <ele>1361.98</ele>
        <time>2022-10-19T13:32:42.176Z</time>
      </trkpt>
      <trkpt lat="44.66817" lon="6.04885">
        <ele>1359.18</ele>
        <time>2022-10-19T13:32:57.374Z</time>
      </trkpt>
      <trkpt lat="44.66832" lon="6.04901">
        <ele>1356.95</ele>
        <time>2022-10-19T13:33:12.052Z</time>
      </trkpt>
      <trkpt lat="44.66845" lon="6.04918">
        <ele>1354</ele>
        <time>2022-10-19T13:33:30.971Z</time>
      </trkpt>
      <trkpt lat="44.66861" lon="6.0493">
        <ele>1350.72</ele>
        <time>2022-10-19T13:33:54.307Z</time>
      </trkpt>
      <trkpt lat="44.66872" lon="6.04952">
        <ele>1348.46</ele>
        <time>2022-10-19T13:34:09.397Z</time>
      </trkpt>
      <trkpt lat="44.66887" lon="6.04967">
        <ele>1347</ele>
        <time>2022-10-19T13:34:23.036Z</time>
      </trkpt>
      <trkpt lat="44.66898" lon="6.04987">
        <ele>1344.37</ele>
        <time>2022-10-19T13:34:38.493Z</time>
      </trkpt>
      <trkpt lat="44.66915" lon="6.04998">
        <ele>1340.18</ele>
        <time>2022-10-19T13:35:01.000Z</time>
      </trkpt>
      <trkpt lat="44.66932" lon="6.05009">
        <ele>1339.08</ele>
        <time>2022-10-19T13:35:16.295Z</time>
      </trkpt>
      <trkpt lat="44.66948" lon="6.05022">
        <ele>1335.9</ele>
        <time>2022-10-19T13:35:34.000Z</time>
      </trkpt>
      <trkpt lat="44.66966" lon="6.05032">
        <ele>1333.83</ele>
        <time>2022-10-19T13:35:48.299Z</time>
      </trkpt>
      <trkpt lat="44.66979" lon="6.05049">
        <ele>1331.15</ele>
        <time>2022-10-19T13:36:03.198Z</time>
      </trkpt>
      <trkpt lat="44.66991" lon="6.0507">
        <ele>1329.28</ele>
        <time>2022-10-19T13:36:16.156Z</time>
      </trkpt>
      <trkpt lat="44.67" lon="6.05092">
        <ele>1326.92</ele>
        <time>2022-10-19T13:36:29.092Z</time>
      </trkpt>
      <trkpt lat="44.67008" lon="6.05115">
        <ele>1325.22</ele>
        <time>2022-10-19T13:36:44.971Z</time>
      </trkpt>
      <trkpt lat="44.6701" lon="6.05141">
        <ele>1321.28</ele>
        <time>2022-10-19T13:37:01.999Z</time>
      </trkpt>
      <trkpt lat="44.67021" lon="6.05161">
        <ele>1319.77</ele>
        <time>2022-10-19T13:37:17.999Z</time>
      </trkpt>
      <trkpt lat="44.67018" lon="6.05186">
        <ele>1313.68</ele>
        <time>2022-10-19T13:37:53.474Z</time>
      </trkpt>
      <trkpt lat="44.67001" lon="6.05176">
        <ele>1311.46</ele>
        <time>2022-10-19T13:38:08.999Z</time>
      </trkpt>
      <trkpt lat="44.66986" lon="6.05161">
        <ele>1308.58</ele>
        <time>2022-10-19T13:38:24.532Z</time>
      </trkpt>
      <trkpt lat="44.66969" lon="6.05152">
        <ele>1306.07</ele>
        <time>2022-10-19T13:38:39.231Z</time>
      </trkpt>
      <trkpt lat="44.66951" lon="6.05144">
        <ele>1303.6</ele>
        <time>2022-10-19T13:38:54.069Z</time>
      </trkpt>
      <trkpt lat="44.66934" lon="6.05134">
        <ele>1300.99</ele>
        <time>2022-10-19T13:39:12.329Z</time>
      </trkpt>
      <trkpt lat="44.66916" lon="6.05137">
        <ele>1298.26</ele>
        <time>2022-10-19T13:39:25.957Z</time>
      </trkpt>
      <trkpt lat="44.66897" lon="6.05141">
        <ele>1295.73</ele>
        <time>2022-10-19T13:39:46.256Z</time>
      </trkpt>
      <trkpt lat="44.66879" lon="6.0515">
        <ele>1292.58</ele>
        <time>2022-10-19T13:39:59.463Z</time>
      </trkpt>
      <trkpt lat="44.6686" lon="6.0515">
        <ele>1290.99</ele>
        <time>2022-10-19T13:40:12.851Z</time>
      </trkpt>
      <trkpt lat="44.66843" lon="6.05143">
        <ele>1287.88</ele>
        <time>2022-10-19T13:40:30.127Z</time>
      </trkpt>
      <trkpt lat="44.66827" lon="6.0513">
        <ele>1286.18</ele>
        <time>2022-10-19T13:40:46.456Z</time>
      </trkpt>
      <trkpt lat="44.66811" lon="6.05116">
        <ele>1283.97</ele>
        <time>2022-10-19T13:41:01.915Z</time>
      </trkpt>
      <trkpt lat="44.66797" lon="6.05099">
        <ele>1280.86</ele>
        <time>2022-10-19T13:41:17.352Z</time>
      </trkpt>
      <trkpt lat="44.66779" lon="6.05091">
        <ele>1277.88</ele>
        <time>2022-10-19T13:41:32.990Z</time>
      </trkpt>
      <trkpt lat="44.66762" lon="6.05081">
        <ele>1275.93</ele>
        <time>2022-10-19T13:41:50.329Z</time>
      </trkpt>
      <trkpt lat="44.66744" lon="6.05077">
        <ele>1273.21</ele>
        <time>2022-10-19T13:42:06.923Z</time>
      </trkpt>
      <trkpt lat="44.66727" lon="6.05073">
        <ele>1270.75</ele>
        <time>2022-10-19T13:42:20.515Z</time>
      </trkpt>
      <trkpt lat="44.66709" lon="6.05063">
        <ele>1268.5</ele>
        <time>2022-10-19T13:42:34.114Z</time>
      </trkpt>
      <trkpt lat="44.66714" lon="6.05087">
        <ele>1264.09</ele>
        <time>2022-10-19T13:43:03.351Z</time>
      </trkpt>
      <trkpt lat="44.66696" lon="6.05077">
        <ele>1258.92</ele>
        <time>2022-10-19T13:43:28.526Z</time>
      </trkpt>
      <trkpt lat="44.66681" lon="6.05064">
        <ele>1255.94</ele>
        <time>2022-10-19T13:43:42.999Z</time>
      </trkpt>
      <trkpt lat="44.66674" lon="6.05088">
        <ele>1254.69</ele>
        <time>2022-10-19T13:44:37.999Z</time>
      </trkpt>
      <trkpt lat="44.66666" lon="6.05111">
        <ele>1253.64</ele>
        <time>2022-10-19T13:44:54.470Z</time>
      </trkpt>
      <trkpt lat="44.66658" lon="6.05135">
        <ele>1251.34</ele>
        <time>2022-10-19T13:45:08.999Z</time>
      </trkpt>
      <trkpt lat="44.66651" lon="6.05158">
        <ele>1249.96</ele>
        <time>2022-10-19T13:45:22.999Z</time>
      </trkpt>
      <trkpt lat="44.66642" lon="6.0518">
        <ele>1245.3</ele>
        <time>2022-10-19T13:45:40.287Z</time>
      </trkpt>
      <trkpt lat="44.6664" lon="6.05206">
        <ele>1243.85</ele>
        <time>2022-10-19T13:45:56.514Z</time>
      </trkpt>
      <trkpt lat="44.66647" lon="6.0523">
        <ele>1243.18</ele>
        <time>2022-10-19T13:46:17.538Z</time>
      </trkpt>
      <trkpt lat="44.6665" lon="6.05256">
        <ele>1240.54</ele>
        <time>2022-10-19T13:46:31.312Z</time>
      </trkpt>
      <trkpt lat="44.66662" lon="6.05276">
        <ele>1239.66</ele>
        <time>2022-10-19T13:46:45.999Z</time>
      </trkpt>
      <trkpt lat="44.66665" lon="6.05301">
        <ele>1238.51</ele>
        <time>2022-10-19T13:46:59.992Z</time>
      </trkpt>
      <trkpt lat="44.66661" lon="6.05327">
        <ele>1235.04</ele>
        <time>2022-10-19T13:47:18.032Z</time>
      </trkpt>
      <trkpt lat="44.6666" lon="6.05352">
        <ele>1232.78</ele>
        <time>2022-10-19T13:47:32.211Z</time>
      </trkpt>
      <trkpt lat="44.66667" lon="6.05376">
        <ele>1230.53</ele>
        <time>2022-10-19T13:47:45.049Z</time>
      </trkpt>
      <trkpt lat="44.66674" lon="6.054">
        <ele>1229.36</ele>
        <time>2022-10-19T13:47:59.147Z</time>
      </trkpt>
      <trkpt lat="44.66674" lon="6.05427">
        <ele>1227.15</ele>
        <time>2022-10-19T13:48:14.999Z</time>
      </trkpt>
      <trkpt lat="44.66683" lon="6.05449">
        <ele>1224.57</ele>
        <time>2022-10-19T13:48:29.093Z</time>
      </trkpt>
      <trkpt lat="44.66686" lon="6.05474">
        <ele>1222.92</ele>
        <time>2022-10-19T13:48:43.315Z</time>
      </trkpt>
      <trkpt lat="44.66689" lon="6.055">
        <ele>1219.06</ele>
        <time>2022-10-19T13:49:00.999Z</time>
      </trkpt>
      <trkpt lat="44.66694" lon="6.05525">
        <ele>1216.3</ele>
        <time>2022-10-19T13:49:13.453Z</time>
      </trkpt>
      <trkpt lat="44.66694" lon="6.0555">
        <ele>1214.05</ele>
        <time>2022-10-19T13:49:29.109Z</time>
      </trkpt>
      <trkpt lat="44.667" lon="6.05575">
        <ele>1211.58</ele>
        <time>2022-10-19T13:49:46.169Z</time>
      </trkpt>
    </trkseg>
  </trk>
</gpx>